AAL134 KLAX-EGLL
Flight info
| Callsign | AAL134 |
|---|---|
| Flight time | N/A |
| Altitude | 33000 |
| Route | OSHNN1 BEALE Q842 WINEN DCT MLF DCT MTU DCT DDY DCT TIMMR/N0476F350 DCT HML DCT RIONA DCT 53N085W DCT HELMO DCT KLIPS DCT SINGA/M081F350 DCT RADUN DCT 61N050W/M082F370 6130N04000W 61N030W 59N020W DCT AGORI/N0468F370 DCT OSBOX DCT MIMKU DCT KELLY L10 WAL UY53 NUGRA |
| Aircraft | B77W/H-SDE1E2E3FGHIJ2J3J4J5M1RWXY/LB1D1 |
Departure
| Time | 2026-05-04 04:16 |
|---|---|
| Airport | Los Angeles International Airport (KLAX) |
Arrival
| Time | N/A |
|---|---|
| Airport | London Heathrow Airport (EGLL) |
| Time | Latitude | Longitude | Altitude | Speed | Heading |
|---|---|---|---|---|---|
| 2026-05-04 03:53 | 33.94162 | -118.40758 | 99 ft | 0 kts | 83° |
| 2026-05-04 04:02 | 33.94161 | -118.40772 | 86 ft | 4 kts | 83° |
| 2026-05-04 04:02 | 33.94158 | -118.40798 | 80 ft | 3 kts | 85° |
| 2026-05-04 04:02 | 33.94161 | -118.40829 | 98 ft | 4 kts | 110° |
| 2026-05-04 04:02 | 33.94164 | -118.40840 | 98 ft | 4 kts | 128° |
| 2026-05-04 04:03 | 33.94143 | -118.40842 | 100 ft | 4 kts | 185° |
| 2026-05-04 04:03 | 33.94120 | -118.40840 | 100 ft | 4 kts | 173° |
| 2026-05-04 04:03 | 33.94093 | -118.40836 | 100 ft | 4 kts | 173° |
| 2026-05-04 04:03 | 33.94066 | -118.40832 | 100 ft | 4 kts | 173° |
| 2026-05-04 04:04 | 33.94039 | -118.40828 | 102 ft | 4 kts | 173° |
| 2026-05-04 04:04 | 33.94012 | -118.40824 | 102 ft | 4 kts | 173° |
| 2026-05-04 04:04 | 33.94007 | -118.40823 | 101 ft | 0 kts | 173° |
| 2026-05-04 04:07 | 33.94002 | -118.40823 | 101 ft | 3 kts | 173° |
| 2026-05-04 04:07 | 33.93964 | -118.40817 | 101 ft | 7 kts | 173° |
| 2026-05-04 04:07 | 33.93914 | -118.40808 | 103 ft | 7 kts | 164° |
| 2026-05-04 04:08 | 33.93875 | -118.40769 | 104 ft | 7 kts | 137° |
| 2026-05-04 04:08 | 33.93828 | -118.40731 | 106 ft | 9 kts | 143° |
| 2026-05-04 04:08 | 33.93812 | -118.40665 | 107 ft | 9 kts | 90° |
| 2026-05-04 04:08 | 33.93818 | -118.40592 | 107 ft | 9 kts | 83° |
| 2026-05-04 04:09 | 33.93827 | -118.40498 | 108 ft | 12 kts | 83° |
| 2026-05-04 04:09 | 33.93836 | -118.40396 | 109 ft | 12 kts | 82° |
| 2026-05-04 04:09 | 33.93847 | -118.40295 | 109 ft | 12 kts | 82° |
| 2026-05-04 04:09 | 33.93858 | -118.40193 | 109 ft | 12 kts | 83° |
| 2026-05-04 04:10 | 33.93869 | -118.40092 | 109 ft | 12 kts | 82° |
| 2026-05-04 04:10 | 33.93881 | -118.39991 | 109 ft | 12 kts | 81° |
| 2026-05-04 04:10 | 33.93893 | -118.39873 | 108 ft | 18 kts | 83° |
| 2026-05-04 04:10 | 33.93907 | -118.39709 | 108 ft | 20 kts | 83° |
| 2026-05-04 04:11 | 33.93924 | -118.39544 | 108 ft | 20 kts | 83° |
| 2026-05-04 04:11 | 33.93942 | -118.39380 | 107 ft | 20 kts | 82° |
| 2026-05-04 04:11 | 33.93960 | -118.39215 | 107 ft | 20 kts | 83° |
| 2026-05-04 04:11 | 33.93976 | -118.39050 | 106 ft | 20 kts | 84° |
| 2026-05-04 04:12 | 33.93992 | -118.38885 | 106 ft | 20 kts | 83° |
| 2026-05-04 04:12 | 33.94008 | -118.38722 | 107 ft | 19 kts | 83° |
| 2026-05-04 04:12 | 33.94025 | -118.38563 | 108 ft | 19 kts | 83° |
| 2026-05-04 04:12 | 33.94038 | -118.38430 | 108 ft | 9 kts | 83° |
| 2026-05-04 04:13 | 33.94042 | -118.38386 | 108 ft | 0 kts | 83° |
| 2026-05-04 04:14 | 33.94043 | -118.38370 | 108 ft | 3 kts | 92° |
| 2026-05-04 04:14 | 33.94030 | -118.38348 | 110 ft | 3 kts | 136° |
| 2026-05-04 04:14 | 33.94003 | -118.38329 | 111 ft | 7 kts | 160° |
| 2026-05-04 04:14 | 33.93957 | -118.38333 | 113 ft | 7 kts | 213° |
| 2026-05-04 04:15 | 33.93949 | -118.38359 | 112 ft | 0 kts | 264° |
| 2026-05-04 04:15 | 33.93938 | -118.38477 | 112 ft | 45 kts | 263° |
| 2026-05-04 04:15 | 33.93869 | -118.39151 | 109 ft | 115 kts | 263° |
| 2026-05-04 04:16 | 33.93746 | -118.40347 | 115 ft | 170 kts | 263° |
| 2026-05-04 04:16 | 33.93590 | -118.41851 | 521 ft | 177 kts | 263° |
| 2026-05-04 04:16 | 33.93438 | -118.43334 | 1204 ft | 179 kts | 263° |
| 2026-05-04 04:16 | 33.93287 | -118.44880 | 1539 ft | 196 kts | 264° |
| 2026-05-04 04:17 | 33.93054 | -118.46571 | 1728 ft | 216 kts | 249° |
| 2026-05-04 04:17 | 33.92117 | -118.48047 | 2083 ft | 232 kts | 218° |
| 2026-05-04 04:17 | 33.90583 | -118.48804 | 2502 ft | 246 kts | 191° |
| 2026-05-04 04:17 | 33.88843 | -118.49056 | 2966 ft | 256 kts | 190° |
| 2026-05-04 04:18 | 33.87073 | -118.49328 | 3741 ft | 256 kts | 190° |
| 2026-05-04 04:18 | 33.85289 | -118.49604 | 4408 ft | 261 kts | 188° |
| 2026-05-04 04:18 | 33.83476 | -118.49887 | 5103 ft | 264 kts | 189° |
| 2026-05-04 04:18 | 33.81645 | -118.50175 | 5721 ft | 269 kts | 190° |
| 2026-05-04 04:19 | 33.79771 | -118.50473 | 6353 ft | 273 kts | 189° |
| 2026-05-04 04:19 | 33.77883 | -118.50773 | 7031 ft | 273 kts | 190° |
| 2026-05-04 04:19 | 33.76005 | -118.51073 | 7768 ft | 273 kts | 190° |
| 2026-05-04 04:19 | 33.74113 | -118.51377 | 8404 ft | 275 kts | 190° |
| 2026-05-04 04:20 | 33.72232 | -118.51594 | 8991 ft | 278 kts | 179° |
| 2026-05-04 04:20 | 33.70363 | -118.50914 | 9520 ft | 289 kts | 150° |
| 2026-05-04 04:20 | 33.68933 | -118.49195 | 10127 ft | 298 kts | 124° |
| 2026-05-04 04:20 | 33.68099 | -118.46872 | 10449 ft | 312 kts | 112° |
| 2026-05-04 04:21 | 33.67374 | -118.44320 | 10593 ft | 333 kts | 112° |
| 2026-05-04 04:21 | 33.66597 | -118.41610 | 10766 ft | 354 kts | 112° |
| 2026-05-04 04:21 | 33.65756 | -118.38735 | 10938 ft | 375 kts | 112° |
| 2026-05-04 04:21 | 33.64972 | -118.35687 | 11354 ft | 390 kts | 106° |
| 2026-05-04 04:22 | 33.64512 | -118.32436 | 11972 ft | 400 kts | 99° |
| 2026-05-04 04:22 | 33.64383 | -118.29078 | 12760 ft | 406 kts | 92° |
| 2026-05-04 04:22 | 33.64424 | -118.25675 | 13566 ft | 410 kts | 92° |
| 2026-05-04 04:22 | 33.64477 | -118.22235 | 14210 ft | 414 kts | 89° |
| 2026-05-04 04:23 | 33.65159 | -118.18818 | 14554 ft | 432 kts | 65° |
| 2026-05-04 04:23 | 33.66852 | -118.15815 | 15088 ft | 440 kts | 44° |
| 2026-05-04 04:23 | 33.69219 | -118.13493 | 15647 ft | 442 kts | 33° |
| 2026-05-04 04:23 | 33.71747 | -118.11312 | 16168 ft | 452 kts | 33° |
| 2026-05-04 04:24 | 33.74309 | -118.09086 | 16787 ft | 458 kts | 33° |
| 2026-05-04 04:24 | 33.76899 | -118.06810 | 16999 ft | 464 kts | 33° |
| 2026-05-04 04:24 | 33.79498 | -118.04498 | 16960 ft | 464 kts | 33° |
| 2026-05-04 04:24 | 33.82086 | -118.02175 | 17079 ft | 467 kts | 33° |
| 2026-05-04 04:25 | 33.84701 | -117.99821 | 17713 ft | 472 kts | 33° |
| 2026-05-04 04:25 | 33.87340 | -117.97444 | 18398 ft | 476 kts | 33° |
| 2026-05-04 04:25 | 33.89998 | -117.95050 | 19034 ft | 478 kts | 32° |
| 2026-05-04 04:25 | 33.92666 | -117.92635 | 19629 ft | 482 kts | 33° |
| 2026-05-04 04:26 | 33.95344 | -117.90187 | 20222 ft | 486 kts | 33° |
| 2026-05-04 04:26 | 33.98049 | -117.87706 | 20789 ft | 490 kts | 33° |
| 2026-05-04 04:26 | 34.00777 | -117.85208 | 21343 ft | 495 kts | 33° |
| 2026-05-04 04:26 | 34.03526 | -117.82691 | 21898 ft | 499 kts | 33° |
| 2026-05-04 04:27 | 34.06300 | -117.80143 | 22425 ft | 503 kts | 34° |
| 2026-05-04 04:27 | 34.08973 | -117.77377 | 22959 ft | 510 kts | 40° |
| 2026-05-04 04:27 | 34.11445 | -117.74268 | 23492 ft | 517 kts | 47° |
| 2026-05-04 04:27 | 34.13720 | -117.70882 | 23961 ft | 522 kts | 49° |
| 2026-05-04 04:28 | 34.15983 | -117.67433 | 24348 ft | 527 kts | 49° |
| 2026-05-04 04:28 | 34.18273 | -117.63953 | 24740 ft | 531 kts | 49° |
| 2026-05-04 04:28 | 34.20592 | -117.60460 | 25197 ft | 534 kts | 49° |
| 2026-05-04 04:28 | 34.22935 | -117.56957 | 25619 ft | 538 kts | 48° |
| 2026-05-04 04:29 | 34.25304 | -117.53437 | 25957 ft | 543 kts | 48° |
| 2026-05-04 04:29 | 34.27695 | -117.49885 | 26345 ft | 545 kts | 48° |
| 2026-05-04 04:29 | 34.30094 | -117.46310 | 26671 ft | 550 kts | 48° |
| 2026-05-04 04:29 | 34.32475 | -117.42754 | 27048 ft | 553 kts | 48° |
| 2026-05-04 04:30 | 34.34904 | -117.39122 | 27423 ft | 557 kts | 48° |
| 2026-05-04 04:30 | 34.37351 | -117.35461 | 27756 ft | 561 kts | 48° |
| 2026-05-04 04:30 | 34.39842 | -117.31728 | 28081 ft | 565 kts | 48° |
| 2026-05-04 04:30 | 34.42319 | -117.28013 | 28369 ft | 568 kts | 48° |
| 2026-05-04 04:31 | 34.44807 | -117.24276 | 28685 ft | 572 kts | 48° |
| 2026-05-04 04:31 | 34.47275 | -117.20565 | 29047 ft | 575 kts | 48° |
| 2026-05-04 04:31 | 34.48971 | -117.18012 | 29201 ft | 576 kts | 48° |
| 2026-05-04 04:31 | 34.52287 | -117.13016 | 29963 ft | 572 kts | 48° |
| 2026-05-04 04:32 | 34.54780 | -117.09259 | 30319 ft | 573 kts | 48° |
| 2026-05-04 04:32 | 34.57310 | -117.05513 | 30600 ft | 575 kts | 46° |
| 2026-05-04 04:32 | 34.59875 | -117.01784 | 30833 ft | 577 kts | 46° |
| 2026-05-04 04:32 | 34.62463 | -116.98049 | 31046 ft | 580 kts | 46° |
| 2026-05-04 04:33 | 34.64223 | -116.95514 | 31203 ft | 582 kts | 46° |
| 2026-05-04 04:33 | 34.66831 | -116.91740 | 31466 ft | 584 kts | 45° |
| 2026-05-04 04:33 | 34.69441 | -116.87939 | 31699 ft | 587 kts | 46° |
| 2026-05-04 04:33 | 34.72017 | -116.84169 | 31964 ft | 589 kts | 46° |
| 2026-05-04 04:34 | 34.74634 | -116.80326 | 32223 ft | 591 kts | 46° |
| 2026-05-04 04:34 | 34.77260 | -116.76463 | 32469 ft | 593 kts | 45° |
| 2026-05-04 04:34 | 34.79932 | -116.72536 | 32630 ft | 596 kts | 45° |
| 2026-05-04 04:34 | 34.82555 | -116.68699 | 32817 ft | 599 kts | 45° |
| 2026-05-04 04:35 | 34.87904 | -116.60884 | 32853 ft | 600 kts | 43° |
| 2026-05-04 04:35 | 34.93472 | -116.53436 | 32843 ft | 587 kts | 41° |
| 2026-05-04 04:36 | 34.98993 | -116.46252 | 32804 ft | 575 kts | 41° |
| 2026-05-04 04:36 | 35.04455 | -116.39033 | 32801 ft | 584 kts | 41° |
| 2026-05-04 04:37 | 35.15427 | -116.24257 | 32793 ft | 588 kts | 42° |
| 2026-05-04 04:38 | 35.20896 | -116.16855 | 32800 ft | 585 kts | 42° |
| 2026-05-04 04:38 | 35.26316 | -116.09508 | 32816 ft | 576 kts | 42° |
| 2026-05-04 04:39 | 35.31646 | -116.02278 | 32816 ft | 571 kts | 42° |
| 2026-05-04 04:39 | 35.36968 | -115.95057 | 32826 ft | 571 kts | 42° |
| 2026-05-04 04:40 | 35.42280 | -115.87828 | 32843 ft | 570 kts | 42° |
| 2026-05-04 04:40 | 35.47575 | -115.80597 | 32826 ft | 569 kts | 43° |
| 2026-05-04 04:41 | 35.52855 | -115.73371 | 32832 ft | 568 kts | 42° |
| 2026-05-04 04:41 | 35.58121 | -115.66158 | 32841 ft | 567 kts | 42° |
| 2026-05-04 04:42 | 35.63376 | -115.58939 | 32834 ft | 567 kts | 42° |
| 2026-05-04 04:42 | 35.68622 | -115.51716 | 32826 ft | 566 kts | 43° |
| 2026-05-04 04:43 | 35.73857 | -115.44490 | 32827 ft | 566 kts | 43° |
| 2026-05-04 04:43 | 35.79087 | -115.37251 | 32819 ft | 565 kts | 43° |
| 2026-05-04 04:44 | 35.84308 | -115.30012 | 32836 ft | 564 kts | 43° |
| 2026-05-04 04:44 | 35.89512 | -115.22774 | 32867 ft | 563 kts | 43° |
| 2026-05-04 04:45 | 35.94698 | -115.15546 | 32839 ft | 561 kts | 43° |
| 2026-05-04 04:47 | 36.12765 | -114.90257 | 32727 ft | 569 kts | 43° |
| 2026-05-04 04:47 | 36.18359 | -114.83545 | 32706 ft | 559 kts | 31° |
| 2026-05-04 04:48 | 36.24685 | -114.78129 | 32700 ft | 546 kts | 20° |
| 2026-05-04 04:49 | 36.41032 | -114.67477 | 32652 ft | 540 kts | 19° |
| 2026-05-04 04:49 | 36.47653 | -114.63076 | 32642 ft | 540 kts | 20° |
| 2026-05-04 04:50 | 36.54265 | -114.58662 | 32642 ft | 539 kts | 20° |
| 2026-05-04 04:50 | 36.60863 | -114.54225 | 32659 ft | 540 kts | 21° |
| 2026-05-04 04:51 | 36.67479 | -114.49838 | 32642 ft | 538 kts | 20° |
| 2026-05-04 04:51 | 36.74000 | -114.45246 | 32687 ft | 540 kts | 24° |
| 2026-05-04 04:52 | 36.80365 | -114.40244 | 32670 ft | 541 kts | 25° |
| 2026-05-04 04:52 | 36.86722 | -114.35185 | 32685 ft | 542 kts | 25° |
| 2026-05-04 04:53 | 36.93101 | -114.30140 | 32692 ft | 544 kts | 25° |
| 2026-05-04 04:53 | 36.99506 | -114.25095 | 32709 ft | 544 kts | 25° |
| 2026-05-04 04:54 | 37.05925 | -114.20035 | 32717 ft | 546 kts | 25° |
| 2026-05-04 04:54 | 37.12350 | -114.14955 | 32755 ft | 546 kts | 25° |
| 2026-05-04 04:55 | 37.18782 | -114.09856 | 32739 ft | 547 kts | 25° |
| 2026-05-04 04:55 | 37.25205 | -114.04751 | 32763 ft | 546 kts | 25° |
| 2026-05-04 04:56 | 37.31611 | -113.99651 | 32763 ft | 545 kts | 25° |
| 2026-05-04 04:56 | 37.38008 | -113.94554 | 32784 ft | 544 kts | 25° |
| 2026-05-04 04:57 | 37.44389 | -113.89447 | 32799 ft | 544 kts | 25° |
| 2026-05-04 04:57 | 37.50766 | -113.84338 | 32806 ft | 543 kts | 25° |
| 2026-05-04 04:58 | 37.57139 | -113.79223 | 32840 ft | 545 kts | 25° |
| 2026-05-04 04:58 | 37.63498 | -113.74110 | 32819 ft | 546 kts | 25° |
| 2026-05-04 04:59 | 37.69942 | -113.68924 | 32828 ft | 546 kts | 25° |
| 2026-05-04 04:59 | 37.76304 | -113.63784 | 32828 ft | 546 kts | 25° |
| 2026-05-04 05:00 | 37.82705 | -113.58602 | 32841 ft | 547 kts | 25° |
| 2026-05-04 05:01 | 37.92303 | -113.50774 | 32825 ft | 549 kts | 27° |
| 2026-05-04 05:01 | 37.98264 | -113.44613 | 32828 ft | 556 kts | 36° |
| 2026-05-04 05:02 | 38.03972 | -113.37988 | 32822 ft | 556 kts | 37° |
| 2026-05-04 05:02 | 38.09684 | -113.31400 | 32837 ft | 554 kts | 37° |
| 2026-05-04 05:03 | 38.15415 | -113.24865 | 32839 ft | 553 kts | 36° |
| 2026-05-04 05:04 | 38.26821 | -113.11841 | 32938 ft | 549 kts | 36° |
| 2026-05-04 05:04 | 38.32487 | -113.05342 | 32992 ft | 547 kts | 37° |
| 2026-05-04 05:06 | 38.52507 | -112.75727 | 32909 ft | 553 kts | 47° |
| 2026-05-04 05:07 | 38.57374 | -112.68148 | 32879 ft | 551 kts | 47° |
| 2026-05-04 05:07 | 38.62237 | -112.60577 | 32828 ft | 550 kts | 47° |
| 2026-05-04 05:09 | 38.81360 | -112.30566 | 32971 ft | 535 kts | 49° |
| 2026-05-04 05:09 | 38.83705 | -112.26869 | 32968 ft | 534 kts | 49° |
| 2026-05-04 05:10 | 38.88376 | -112.19489 | 32950 ft | 533 kts | 48° |
| 2026-05-04 05:10 | 38.93074 | -112.12053 | 32942 ft | 540 kts | 49° |
| 2026-05-04 05:11 | 38.97816 | -112.04528 | 32921 ft | 542 kts | 49° |
| 2026-05-04 05:11 | 39.02536 | -111.97011 | 32881 ft | 535 kts | 50° |
| 2026-05-04 05:12 | 39.07155 | -111.89636 | 32847 ft | 527 kts | 50° |
| 2026-05-04 05:12 | 39.11758 | -111.82279 | 32863 ft | 528 kts | 50° |
| 2026-05-04 05:13 | 39.16369 | -111.74891 | 32873 ft | 530 kts | 50° |
| 2026-05-04 05:13 | 39.20982 | -111.67480 | 32855 ft | 530 kts | 50° |
| 2026-05-04 05:14 | 39.25592 | -111.60057 | 32857 ft | 530 kts | 50° |
| 2026-05-04 05:14 | 39.30194 | -111.52633 | 32863 ft | 529 kts | 50° |
| 2026-05-04 05:15 | 39.34771 | -111.45227 | 32870 ft | 526 kts | 51° |
| 2026-05-04 05:15 | 39.39307 | -111.37868 | 32863 ft | 521 kts | 51° |
| 2026-05-04 05:16 | 39.43807 | -111.30557 | 32862 ft | 518 kts | 51° |
| 2026-05-04 05:16 | 39.48273 | -111.23283 | 32878 ft | 515 kts | 51° |
| 2026-05-04 05:17 | 39.52731 | -111.16004 | 32890 ft | 516 kts | 51° |
| 2026-05-04 05:17 | 39.57167 | -111.08745 | 32906 ft | 518 kts | 51° |
| 2026-05-04 05:18 | 39.61639 | -111.01411 | 32959 ft | 519 kts | 51° |
| 2026-05-04 05:18 | 39.66107 | -110.94066 | 32964 ft | 518 kts | 52° |
| 2026-05-04 05:19 | 39.69839 | -110.87914 | 32972 ft | 517 kts | 52° |
| 2026-05-04 05:19 | 39.74245 | -110.80638 | 32954 ft | 515 kts | 52° |
| 2026-05-04 05:20 | 39.78665 | -110.73322 | 32943 ft | 514 kts | 51° |
| 2026-05-04 05:20 | 39.83112 | -110.65949 | 32910 ft | 515 kts | 51° |
| 2026-05-04 05:21 | 39.87499 | -110.58657 | 32859 ft | 515 kts | 51° |
| 2026-05-04 05:21 | 39.91910 | -110.51305 | 32866 ft | 515 kts | 52° |
| 2026-05-04 05:22 | 39.96315 | -110.43938 | 32840 ft | 514 kts | 51° |
| 2026-05-04 05:22 | 40.00706 | -110.36592 | 32821 ft | 513 kts | 51° |
| 2026-05-04 05:23 | 40.05077 | -110.29255 | 32802 ft | 511 kts | 51° |
| 2026-05-04 05:23 | 40.09428 | -110.21933 | 32821 ft | 510 kts | 51° |
| 2026-05-04 05:24 | 40.13775 | -110.14618 | 32808 ft | 509 kts | 50° |
| 2026-05-04 05:24 | 40.18621 | -110.07932 | 32797 ft | 504 kts | 41° |
| 2026-05-04 05:25 | 40.23765 | -110.01718 | 32804 ft | 502 kts | 41° |
| 2026-05-04 05:25 | 40.28881 | -109.95515 | 32797 ft | 500 kts | 41° |
| 2026-05-04 05:26 | 40.33953 | -109.89290 | 32795 ft | 499 kts | 41° |
| 2026-05-04 05:26 | 40.39001 | -109.83051 | 32832 ft | 498 kts | 41° |
| 2026-05-04 05:28 | 40.59057 | -109.58122 | 32918 ft | 496 kts | 42° |
| 2026-05-04 05:29 | 40.64061 | -109.51871 | 32904 ft | 496 kts | 42° |
| 2026-05-04 05:29 | 40.69061 | -109.45611 | 32879 ft | 496 kts | 42° |
| 2026-05-04 05:31 | 40.89071 | -109.20424 | 32851 ft | 496 kts | 42° |
| 2026-05-04 05:32 | 40.94057 | -109.14111 | 32860 ft | 496 kts | 42° |
| 2026-05-04 05:33 | 41.01520 | -109.04638 | 32868 ft | 494 kts | 42° |
| 2026-05-04 05:33 | 41.06469 | -108.98340 | 32858 ft | 492 kts | 42° |
| 2026-05-04 05:34 | 41.11395 | -108.92058 | 32855 ft | 490 kts | 42° |
| 2026-05-04 05:34 | 41.16295 | -108.85794 | 32861 ft | 488 kts | 42° |
| 2026-05-04 05:35 | 41.21180 | -108.79536 | 32863 ft | 488 kts | 42° |
| 2026-05-04 05:35 | 41.26030 | -108.73308 | 32876 ft | 489 kts | 41° |
| 2026-05-04 05:36 | 41.30925 | -108.67012 | 32872 ft | 490 kts | 41° |
| 2026-05-04 05:36 | 41.35828 | -108.60690 | 32863 ft | 491 kts | 41° |
| 2026-05-04 05:37 | 41.40739 | -108.54342 | 32857 ft | 492 kts | 41° |
| 2026-05-04 05:37 | 41.45653 | -108.47976 | 32857 ft | 493 kts | 42° |
| 2026-05-04 05:38 | 41.53028 | -108.38396 | 32939 ft | 496 kts | 41° |
| 2026-05-04 05:38 | 41.55503 | -108.35175 | 33242 ft | 496 kts | 41° |
| 2026-05-04 05:38 | 41.57965 | -108.31965 | 33659 ft | 494 kts | 41° |
| 2026-05-04 05:39 | 41.60416 | -108.28767 | 34048 ft | 491 kts | 41° |
| 2026-05-04 05:39 | 41.65299 | -108.22384 | 34589 ft | 491 kts | 41° |
| 2026-05-04 05:39 | 41.67745 | -108.19183 | 34749 ft | 494 kts | 41° |
| 2026-05-04 05:40 | 41.72680 | -108.12714 | 34825 ft | 497 kts | 41° |
| 2026-05-04 05:40 | 41.77588 | -108.06260 | 34823 ft | 492 kts | 41° |
| 2026-05-04 05:41 | 41.82423 | -107.99890 | 34826 ft | 490 kts | 41° |
| 2026-05-04 05:41 | 41.87281 | -107.93477 | 34828 ft | 490 kts | 41° |
| 2026-05-04 05:42 | 41.92141 | -107.87047 | 34823 ft | 491 kts | 41° |
| 2026-05-04 05:42 | 41.97010 | -107.80589 | 34822 ft | 492 kts | 41° |
| 2026-05-04 05:43 | 42.01886 | -107.74108 | 34833 ft | 493 kts | 41° |
| 2026-05-04 05:45 | 42.21419 | -107.47993 | 34812 ft | 494 kts | 41° |
| 2026-05-04 05:47 | 42.40829 | -107.21801 | 34817 ft | 491 kts | 41° |
| 2026-05-04 05:47 | 42.45644 | -107.15267 | 34824 ft | 489 kts | 41° |
| 2026-05-04 05:48 | 42.50443 | -107.08738 | 34815 ft | 489 kts | 41° |
| 2026-05-04 05:48 | 42.55232 | -107.02211 | 34853 ft | 488 kts | 42° |
| 2026-05-04 05:49 | 42.60003 | -106.95691 | 34823 ft | 486 kts | 42° |
| 2026-05-04 05:49 | 42.64750 | -106.89188 | 34824 ft | 484 kts | 42° |
| 2026-05-04 05:51 | 42.83567 | -106.63267 | 34845 ft | 481 kts | 43° |
| 2026-05-04 05:52 | 42.88257 | -106.56767 | 34843 ft | 480 kts | 43° |
| 2026-05-04 05:52 | 42.92936 | -106.50269 | 34924 ft | 479 kts | 43° |
| 2026-05-04 05:54 | 43.11532 | -106.24209 | 34876 ft | 479 kts | 45° |
| 2026-05-04 05:55 | 43.16039 | -106.17476 | 34855 ft | 480 kts | 46° |
| 2026-05-04 05:55 | 43.20522 | -106.10707 | 34843 ft | 480 kts | 46° |
| 2026-05-04 05:56 | 43.25018 | -106.03940 | 34837 ft | 480 kts | 46° |
| 2026-05-04 05:56 | 43.29521 | -105.97175 | 34851 ft | 480 kts | 45° |
| 2026-05-04 05:57 | 43.34030 | -105.90392 | 34843 ft | 481 kts | 45° |
| 2026-05-04 05:57 | 43.38539 | -105.83592 | 34835 ft | 481 kts | 45° |
| 2026-05-04 05:58 | 43.43046 | -105.76780 | 34841 ft | 481 kts | 45° |
| 2026-05-04 05:58 | 43.47546 | -105.69959 | 34841 ft | 481 kts | 46° |
| 2026-05-04 05:59 | 43.52044 | -105.63124 | 34855 ft | 481 kts | 45° |
| 2026-05-04 05:59 | 43.56534 | -105.56286 | 34857 ft | 481 kts | 45° |
| 2026-05-04 06:00 | 43.61014 | -105.49448 | 34847 ft | 480 kts | 45° |
| 2026-05-04 06:00 | 43.65476 | -105.42619 | 34849 ft | 479 kts | 45° |
| 2026-05-04 06:01 | 43.69928 | -105.35790 | 34850 ft | 478 kts | 45° |
| 2026-05-04 06:03 | 43.87646 | -105.08450 | 34848 ft | 477 kts | 45° |
| 2026-05-04 06:05 | 44.07515 | -104.77473 | 34840 ft | 477 kts | 45° |
| 2026-05-04 06:06 | 44.11888 | -104.70610 | 34834 ft | 477 kts | 46° |
| 2026-05-04 06:06 | 44.16279 | -104.63702 | 34836 ft | 476 kts | 46° |
| 2026-05-04 06:07 | 44.20656 | -104.56797 | 34826 ft | 475 kts | 46° |
| 2026-05-04 06:07 | 44.25029 | -104.49884 | 34827 ft | 475 kts | 46° |
| 2026-05-04 06:08 | 44.28687 | -104.44089 | 34833 ft | 475 kts | 46° |
| 2026-05-04 06:08 | 44.33046 | -104.37167 | 34821 ft | 474 kts | 46° |
| 2026-05-04 06:09 | 44.37399 | -104.30236 | 34817 ft | 474 kts | 45° |
| 2026-05-04 06:11 | 44.54718 | -104.02497 | 34830 ft | 474 kts | 45° |
| 2026-05-04 06:13 | 44.72028 | -103.74496 | 34803 ft | 475 kts | 45° |
| 2026-05-04 06:14 | 44.87179 | -103.49757 | 34745 ft | 478 kts | 45° |
| 2026-05-04 06:15 | 44.91513 | -103.42641 | 34761 ft | 479 kts | 44° |
| 2026-05-04 06:15 | 44.95851 | -103.35499 | 34743 ft | 480 kts | 45° |
| 2026-05-04 06:16 | 45.00191 | -103.28337 | 34748 ft | 480 kts | 44° |
| 2026-05-04 06:16 | 45.04540 | -103.21141 | 34738 ft | 482 kts | 44° |
| 2026-05-04 06:17 | 45.08897 | -103.13915 | 34751 ft | 483 kts | 44° |
| 2026-05-04 06:17 | 45.13258 | -103.06661 | 34731 ft | 484 kts | 44° |
| 2026-05-04 06:18 | 45.17620 | -102.99387 | 34730 ft | 485 kts | 45° |
| 2026-05-04 06:20 | 45.35045 | -102.70141 | 34728 ft | 485 kts | 44° |
| 2026-05-04 06:21 | 45.45906 | -102.51756 | 34735 ft | 485 kts | 44° |
| 2026-05-04 06:22 | 45.50240 | -102.44386 | 34729 ft | 486 kts | 44° |
| 2026-05-04 06:25 | 45.80488 | -101.92404 | 34682 ft | 488 kts | 44° |
| 2026-05-04 06:26 | 45.84807 | -101.84902 | 34683 ft | 488 kts | 44° |
| 2026-05-04 06:26 | 45.89129 | -101.77374 | 34670 ft | 489 kts | 44° |
| 2026-05-04 06:27 | 45.99933 | -101.58469 | 34680 ft | 491 kts | 44° |
| 2026-05-04 06:28 | 46.04264 | -101.50853 | 34672 ft | 492 kts | 44° |
| 2026-05-04 06:28 | 46.08594 | -101.43217 | 34660 ft | 492 kts | 44° |
| 2026-05-04 06:29 | 46.12923 | -101.35563 | 34650 ft | 493 kts | 44° |
| 2026-05-04 06:29 | 46.17246 | -101.27899 | 34653 ft | 493 kts | 44° |
| 2026-05-04 06:30 | 46.21565 | -101.20219 | 34671 ft | 493 kts | 44° |
| 2026-05-04 06:30 | 46.25890 | -101.12510 | 34655 ft | 494 kts | 44° |
| 2026-05-04 06:31 | 46.30209 | -101.04788 | 34642 ft | 494 kts | 44° |
| 2026-05-04 06:31 | 46.34523 | -100.97054 | 34641 ft | 494 kts | 44° |
| 2026-05-04 06:33 | 46.53453 | -100.68814 | 34656 ft | 488 kts | 37° |
| 2026-05-04 06:34 | 46.58304 | -100.61885 | 34661 ft | 489 kts | 37° |
| 2026-05-04 06:34 | 46.63151 | -100.54924 | 34682 ft | 490 kts | 37° |
| 2026-05-04 06:36 | 46.82554 | -100.26890 | 34633 ft | 493 kts | 37° |
| 2026-05-04 06:37 | 46.87418 | -100.19815 | 34637 ft | 494 kts | 37° |
| 2026-05-04 06:37 | 46.92285 | -100.12719 | 34637 ft | 494 kts | 37° |
| 2026-05-04 06:38 | 46.97154 | -100.05598 | 34645 ft | 496 kts | 37° |
| 2026-05-04 06:40 | 47.16713 | -99.76802 | 34636 ft | 500 kts | 37° |
| 2026-05-04 06:40 | 47.21621 | -99.69527 | 34642 ft | 502 kts | 37° |
| 2026-05-04 06:41 | 47.26544 | -99.62209 | 34632 ft | 504 kts | 37° |
| 2026-05-04 06:41 | 47.31468 | -99.54867 | 34660 ft | 504 kts | 37° |
| 2026-05-04 06:42 | 47.36404 | -99.47487 | 34629 ft | 506 kts | 37° |
| 2026-05-04 06:44 | 47.56139 | -99.17769 | 34623 ft | 509 kts | 37° |
| 2026-05-04 06:44 | 47.61090 | -99.10261 | 34615 ft | 510 kts | 37° |
| 2026-05-04 06:45 | 47.66043 | -99.02729 | 34662 ft | 510 kts | 37° |
| 2026-05-04 06:45 | 47.71003 | -98.95163 | 34610 ft | 512 kts | 37° |
| 2026-05-04 06:46 | 47.75962 | -98.87575 | 34599 ft | 512 kts | 37° |
| 2026-05-04 06:46 | 47.80921 | -98.79967 | 34596 ft | 513 kts | 38° |
| 2026-05-04 06:48 | 48.00763 | -98.49299 | 34564 ft | 514 kts | 38° |
| 2026-05-04 06:50 | 48.20589 | -98.18292 | 34528 ft | 516 kts | 38° |
| 2026-05-04 06:51 | 48.25542 | -98.10486 | 34516 ft | 516 kts | 38° |
| 2026-05-04 06:51 | 48.30489 | -98.02667 | 34493 ft | 516 kts | 38° |
| 2026-05-04 06:52 | 48.35429 | -97.94835 | 34499 ft | 516 kts | 38° |
| 2026-05-04 06:52 | 48.39530 | -97.88318 | 34503 ft | 516 kts | 39° |
| 2026-05-04 06:53 | 48.44461 | -97.80457 | 34481 ft | 516 kts | 39° |
| 2026-05-04 06:53 | 48.49386 | -97.72582 | 34464 ft | 516 kts | 39° |
| 2026-05-04 06:54 | 48.54309 | -97.64688 | 34455 ft | 517 kts | 39° |
| 2026-05-04 06:54 | 48.59228 | -97.56776 | 34447 ft | 517 kts | 39° |
| 2026-05-04 06:55 | 48.64147 | -97.48838 | 34448 ft | 517 kts | 39° |
| 2026-05-04 06:55 | 48.69063 | -97.40881 | 34470 ft | 518 kts | 39° |
| 2026-05-04 06:57 | 48.88338 | -97.08311 | 34458 ft | 529 kts | 51° |
| 2026-05-04 06:58 | 48.92058 | -96.98626 | 34459 ft | 531 kts | 55° |
| 2026-05-04 06:58 | 48.95677 | -96.88861 | 34441 ft | 529 kts | 55° |
| 2026-05-04 06:59 | 48.99312 | -96.79143 | 34426 ft | 527 kts | 55° |
| 2026-05-04 06:59 | 49.02958 | -96.69469 | 34415 ft | 526 kts | 54° |
| 2026-05-04 07:01 | 49.17476 | -96.30672 | 34407 ft | 527 kts | 56° |
| 2026-05-04 07:02 | 49.21080 | -96.20937 | 34409 ft | 525 kts | 56° |
| 2026-05-04 07:02 | 49.24672 | -96.11205 | 34396 ft | 525 kts | 56° |
| 2026-05-04 07:03 | 49.28254 | -96.01464 | 34403 ft | 525 kts | 56° |
| 2026-05-04 07:03 | 49.31828 | -95.91705 | 34403 ft | 525 kts | 56° |
| 2026-05-04 07:04 | 49.35397 | -95.81925 | 34404 ft | 526 kts | 56° |
| 2026-05-04 07:04 | 49.38963 | -95.72117 | 34435 ft | 527 kts | 57° |
| 2026-05-04 07:05 | 49.42528 | -95.62274 | 34400 ft | 527 kts | 57° |
| 2026-05-04 07:05 | 49.46081 | -95.52425 | 34391 ft | 526 kts | 57° |
| 2026-05-04 07:06 | 49.51381 | -95.37663 | 34391 ft | 525 kts | 57° |
| 2026-05-04 07:07 | 49.54900 | -95.27816 | 34389 ft | 525 kts | 57° |
| 2026-05-04 07:09 | 49.68877 | -94.88329 | 34380 ft | 525 kts | 57° |
| 2026-05-04 07:09 | 49.72353 | -94.78413 | 34376 ft | 524 kts | 58° |
| 2026-05-04 07:10 | 49.75815 | -94.68501 | 34374 ft | 524 kts | 58° |
| 2026-05-04 07:12 | 49.89547 | -94.28797 | 34362 ft | 522 kts | 58° |
| 2026-05-04 07:12 | 49.92957 | -94.18841 | 34375 ft | 522 kts | 58° |
| 2026-05-04 07:13 | 49.96353 | -94.08886 | 34355 ft | 521 kts | 59° |
| 2026-05-04 07:13 | 49.99736 | -93.98933 | 34350 ft | 521 kts | 59° |
| 2026-05-04 07:14 | 50.08141 | -93.74029 | 34336 ft | 520 kts | 59° |
| 2026-05-04 07:15 | 50.11485 | -93.64050 | 34332 ft | 520 kts | 59° |
| 2026-05-04 07:15 | 50.14801 | -93.54119 | 34356 ft | 520 kts | 59° |
| 2026-05-04 07:16 | 50.18127 | -93.44117 | 34321 ft | 518 kts | 59° |
| 2026-05-04 07:16 | 50.21431 | -93.34142 | 34312 ft | 516 kts | 59° |
| 2026-05-04 07:17 | 50.24716 | -93.24183 | 34312 ft | 515 kts | 59° |
| 2026-05-04 07:17 | 50.27983 | -93.14242 | 34312 ft | 514 kts | 59° |
| 2026-05-04 07:18 | 50.31232 | -93.04313 | 34304 ft | 513 kts | 59° |
| 2026-05-04 07:18 | 50.34473 | -92.94374 | 34304 ft | 512 kts | 60° |
| 2026-05-04 07:19 | 50.37702 | -92.84430 | 34307 ft | 512 kts | 60° |
| 2026-05-04 07:19 | 50.40923 | -92.74468 | 34311 ft | 513 kts | 60° |
| 2026-05-04 07:20 | 50.44141 | -92.64481 | 34302 ft | 513 kts | 60° |
| 2026-05-04 07:20 | 50.47392 | -92.54514 | 34289 ft | 512 kts | 58° |
| 2026-05-04 07:22 | 50.62158 | -92.16337 | 34268 ft | 511 kts | 56° |
| 2026-05-04 07:23 | 50.65813 | -92.06730 | 34268 ft | 511 kts | 57° |
| 2026-05-04 07:23 | 50.69459 | -91.97108 | 34267 ft | 511 kts | 57° |
| 2026-05-04 07:24 | 50.73095 | -91.87483 | 34265 ft | 511 kts | 57° |
| 2026-05-04 07:24 | 50.76727 | -91.77839 | 34265 ft | 511 kts | 57° |
| 2026-05-04 07:26 | 50.91148 | -91.39189 | 34266 ft | 511 kts | 58° |
| 2026-05-04 07:27 | 50.94743 | -91.29463 | 34267 ft | 511 kts | 58° |
| 2026-05-04 07:27 | 50.98331 | -91.19718 | 34259 ft | 511 kts | 58° |
| 2026-05-04 07:28 | 51.01909 | -91.09963 | 34266 ft | 511 kts | 58° |
| 2026-05-04 07:28 | 51.05481 | -91.00186 | 34265 ft | 511 kts | 58° |
| 2026-05-04 07:29 | 51.09041 | -90.90404 | 34261 ft | 511 kts | 58° |
| 2026-05-04 07:29 | 51.12597 | -90.80599 | 34268 ft | 512 kts | 59° |
| 2026-05-04 07:30 | 51.16151 | -90.70760 | 34276 ft | 512 kts | 59° |
| 2026-05-04 07:30 | 51.19696 | -90.60909 | 34274 ft | 513 kts | 59° |
| 2026-05-04 07:31 | 51.23241 | -90.51018 | 34281 ft | 514 kts | 59° |
| 2026-05-04 07:33 | 51.37341 | -90.11295 | 34225 ft | 515 kts | 59° |
| 2026-05-04 07:33 | 51.40850 | -90.01308 | 34224 ft | 514 kts | 59° |
| 2026-05-04 07:34 | 51.44348 | -89.91316 | 34288 ft | 514 kts | 59° |
| 2026-05-04 07:34 | 51.47838 | -89.81309 | 34290 ft | 514 kts | 59° |
| 2026-05-04 07:35 | 51.51317 | -89.71291 | 34291 ft | 514 kts | 59° |
| 2026-05-04 07:35 | 51.54787 | -89.61262 | 34293 ft | 514 kts | 60° |
| 2026-05-04 07:36 | 51.58250 | -89.51208 | 34313 ft | 514 kts | 60° |
| 2026-05-04 07:38 | 51.72010 | -89.10868 | 34304 ft | 513 kts | 60° |
| 2026-05-04 07:38 | 51.75424 | -89.00757 | 34306 ft | 513 kts | 60° |
| 2026-05-04 07:39 | 51.78830 | -88.90631 | 34316 ft | 513 kts | 60° |
| 2026-05-04 07:39 | 51.82204 | -88.80559 | 34346 ft | 513 kts | 60° |
| 2026-05-04 07:40 | 51.85593 | -88.70402 | 34335 ft | 513 kts | 60° |
| 2026-05-04 07:40 | 51.88972 | -88.60231 | 34342 ft | 513 kts | 60° |
| 2026-05-04 07:41 | 51.92338 | -88.50057 | 34354 ft | 512 kts | 60° |
| 2026-05-04 07:41 | 51.95691 | -88.39882 | 34354 ft | 511 kts | 60° |
| 2026-05-04 07:42 | 51.98488 | -88.31358 | 34351 ft | 511 kts | 60° |
| 2026-05-04 07:42 | 52.01815 | -88.21187 | 34370 ft | 510 kts | 60° |
| 2026-05-04 07:43 | 52.05106 | -88.11082 | 34374 ft | 508 kts | 61° |
| 2026-05-04 07:43 | 52.08394 | -88.00943 | 34352 ft | 505 kts | 61° |
| 2026-05-04 07:44 | 52.11652 | -87.90856 | 34344 ft | 502 kts | 61° |
| 2026-05-04 07:44 | 52.14880 | -87.80822 | 34348 ft | 499 kts | 61° |
| 2026-05-04 07:45 | 52.18085 | -87.70821 | 34368 ft | 497 kts | 61° |
| 2026-05-04 07:45 | 52.21275 | -87.60824 | 34372 ft | 497 kts | 62° |
| 2026-05-04 07:46 | 52.24461 | -87.50798 | 34395 ft | 498 kts | 62° |
| 2026-05-04 07:46 | 52.27646 | -87.40736 | 34420 ft | 500 kts | 62° |
| 2026-05-04 07:47 | 52.30833 | -87.30623 | 34423 ft | 502 kts | 62° |
| 2026-05-04 07:49 | 52.43573 | -86.89776 | 34438 ft | 505 kts | 62° |
| 2026-05-04 07:49 | 52.46742 | -86.79506 | 34450 ft | 505 kts | 62° |
| 2026-05-04 07:50 | 52.49902 | -86.69225 | 34452 ft | 505 kts | 62° |
| 2026-05-04 07:50 | 52.53052 | -86.58930 | 34461 ft | 504 kts | 62° |
| 2026-05-04 07:51 | 52.56191 | -86.48630 | 34461 ft | 504 kts | 62° |
| 2026-05-04 07:51 | 52.59315 | -86.38330 | 34467 ft | 503 kts | 62° |
| 2026-05-04 07:52 | 52.62426 | -86.28033 | 34473 ft | 502 kts | 62° |
| 2026-05-04 07:52 | 52.65522 | -86.17739 | 34482 ft | 501 kts | 63° |
| 2026-05-04 07:54 | 52.77763 | -85.76606 | 34498 ft | 499 kts | 63° |
| 2026-05-04 07:55 | 52.80794 | -85.66310 | 34502 ft | 498 kts | 63° |
| 2026-05-04 07:55 | 52.83813 | -85.56010 | 34507 ft | 497 kts | 63° |
| 2026-05-04 07:56 | 52.86819 | -85.45710 | 34508 ft | 497 kts | 63° |
| 2026-05-04 07:56 | 52.89818 | -85.35386 | 34510 ft | 497 kts | 63° |
| 2026-05-04 07:57 | 52.92809 | -85.25048 | 34525 ft | 498 kts | 63° |
| 2026-05-04 07:57 | 52.95792 | -85.14692 | 34514 ft | 498 kts | 63° |
| 2026-05-04 07:58 | 52.98765 | -85.04328 | 34522 ft | 498 kts | 64° |
| 2026-05-04 07:58 | 53.02019 | -84.94214 | 34530 ft | 496 kts | 58° |
| 2026-05-04 07:59 | 53.05631 | -84.84457 | 34526 ft | 496 kts | 57° |
| 2026-05-04 07:59 | 53.09256 | -84.74680 | 34528 ft | 496 kts | 57° |
| 2026-05-04 08:00 | 53.12845 | -84.64871 | 34528 ft | 496 kts | 58° |
| 2026-05-04 08:02 | 53.27047 | -84.25418 | 34535 ft | 497 kts | 58° |
| 2026-05-04 08:02 | 53.30583 | -84.15500 | 34535 ft | 496 kts | 58° |
| 2026-05-04 08:03 | 53.34107 | -84.05576 | 34540 ft | 496 kts | 58° |
| 2026-05-04 08:03 | 53.37619 | -83.95646 | 34544 ft | 496 kts | 58° |
| 2026-05-04 08:04 | 53.41130 | -83.85680 | 34546 ft | 496 kts | 58° |
| 2026-05-04 08:04 | 53.44628 | -83.75711 | 34550 ft | 496 kts | 59° |
| 2026-05-04 08:05 | 53.48117 | -83.65726 | 34548 ft | 496 kts | 59° |
| 2026-05-04 08:05 | 53.51593 | -83.55738 | 34552 ft | 495 kts | 59° |
| 2026-05-04 08:06 | 53.55062 | -83.45731 | 34552 ft | 495 kts | 59° |
| 2026-05-04 08:06 | 53.58519 | -83.35719 | 34556 ft | 495 kts | 59° |
| 2026-05-04 08:08 | 53.72214 | -82.95646 | 34555 ft | 493 kts | 59° |
| 2026-05-04 08:11 | 53.87450 | -82.50283 | 34560 ft | 493 kts | 60° |
| 2026-05-04 08:11 | 53.92498 | -82.35067 | 34563 ft | 493 kts | 60° |
| 2026-05-04 08:12 | 53.95853 | -82.24898 | 34560 ft | 494 kts | 60° |
| 2026-05-04 08:12 | 53.99201 | -82.14714 | 34570 ft | 494 kts | 60° |
| 2026-05-04 08:13 | 54.02545 | -82.04496 | 34562 ft | 494 kts | 60° |
| 2026-05-04 08:13 | 54.05869 | -81.94294 | 34562 ft | 494 kts | 60° |
| 2026-05-04 08:14 | 54.09195 | -81.84046 | 34568 ft | 494 kts | 60° |
| 2026-05-04 08:16 | 54.22358 | -81.43055 | 34578 ft | 493 kts | 61° |
| 2026-05-04 08:16 | 54.25629 | -81.32759 | 34582 ft | 493 kts | 61° |
| 2026-05-04 08:17 | 54.28893 | -81.22443 | 34585 ft | 493 kts | 61° |
| 2026-05-04 08:17 | 54.32148 | -81.12110 | 34585 ft | 493 kts | 62° |
| 2026-05-04 08:19 | 54.45069 | -80.70649 | 34596 ft | 493 kts | 62° |
| 2026-05-04 08:20 | 54.48282 | -80.60228 | 34596 ft | 493 kts | 62° |
| 2026-05-04 08:20 | 54.51482 | -80.49803 | 34604 ft | 493 kts | 62° |
| 2026-05-04 08:21 | 54.54674 | -80.39357 | 34604 ft | 493 kts | 62° |
| 2026-05-04 08:21 | 54.57855 | -80.28900 | 34604 ft | 493 kts | 62° |
| 2026-05-04 08:22 | 54.61027 | -80.18432 | 34615 ft | 492 kts | 63° |
| 2026-05-04 08:24 | 54.73606 | -79.76443 | 34620 ft | 492 kts | 63° |
| 2026-05-04 08:24 | 54.76727 | -79.65908 | 34616 ft | 492 kts | 63° |
| 2026-05-04 08:25 | 54.79837 | -79.55367 | 34619 ft | 491 kts | 63° |
| 2026-05-04 08:25 | 54.82936 | -79.44813 | 34628 ft | 491 kts | 63° |
| 2026-05-04 08:27 | 54.95246 | -79.02414 | 34633 ft | 491 kts | 64° |
| 2026-05-04 08:28 | 54.98302 | -78.91770 | 34637 ft | 492 kts | 64° |
| 2026-05-04 08:28 | 55.01350 | -78.81103 | 34640 ft | 492 kts | 64° |
| 2026-05-04 08:29 | 55.03877 | -78.72223 | 34637 ft | 492 kts | 64° |
| 2026-05-04 08:31 | 55.15968 | -78.29255 | 34646 ft | 493 kts | 65° |
| 2026-05-04 08:33 | 55.27903 | -77.86046 | 34657 ft | 494 kts | 65° |
| 2026-05-04 08:35 | 55.39714 | -77.42462 | 34660 ft | 495 kts | 65° |
| 2026-05-04 08:35 | 55.42648 | -77.31506 | 34664 ft | 495 kts | 65° |
| 2026-05-04 08:37 | 55.52841 | -76.93026 | 34693 ft | 494 kts | 66° |
| 2026-05-04 08:38 | 55.55727 | -76.82009 | 34694 ft | 494 kts | 66° |
| 2026-05-04 08:38 | 55.58602 | -76.70982 | 34699 ft | 494 kts | 66° |
| 2026-05-04 08:40 | 55.69981 | -76.26797 | 34701 ft | 493 kts | 67° |
| 2026-05-04 08:41 | 55.72801 | -76.15709 | 34709 ft | 493 kts | 67° |
| 2026-05-04 08:41 | 55.75612 | -76.04603 | 34711 ft | 493 kts | 67° |
| 2026-05-04 08:42 | 55.78410 | -75.93490 | 34703 ft | 493 kts | 68° |
| 2026-05-04 08:42 | 55.81198 | -75.82363 | 34719 ft | 493 kts | 68° |
| 2026-05-04 08:43 | 55.83976 | -75.71221 | 34709 ft | 493 kts | 68° |
| 2026-05-04 08:43 | 55.86744 | -75.60061 | 34725 ft | 493 kts | 68° |
| 2026-05-04 08:44 | 55.89503 | -75.48882 | 34724 ft | 493 kts | 68° |
| 2026-05-04 08:46 | 56.00449 | -75.03955 | 34738 ft | 494 kts | 69° |
| 2026-05-04 08:46 | 56.03203 | -74.92696 | 34745 ft | 495 kts | 68° |
| 2026-05-04 08:47 | 56.06044 | -74.81477 | 34747 ft | 495 kts | 68° |
| 2026-05-04 08:47 | 56.08888 | -74.70243 | 34749 ft | 495 kts | 68° |
| 2026-05-04 08:48 | 56.11709 | -74.58980 | 34750 ft | 495 kts | 68° |
| 2026-05-04 08:48 | 56.14511 | -74.47699 | 34758 ft | 496 kts | 68° |
| 2026-05-04 08:49 | 56.17302 | -74.36393 | 34750 ft | 495 kts | 69° |
| 2026-05-04 08:50 | 56.27004 | -73.96648 | 34775 ft | 497 kts | 69° |
| 2026-05-04 08:51 | 56.29755 | -73.85245 | 34774 ft | 497 kts | 69° |
| 2026-05-04 08:51 | 56.32497 | -73.73821 | 34772 ft | 497 kts | 69° |
| 2026-05-04 08:52 | 56.35229 | -73.62383 | 34781 ft | 497 kts | 70° |
| 2026-05-04 08:52 | 56.37949 | -73.50926 | 34781 ft | 497 kts | 70° |
| 2026-05-04 08:54 | 56.48735 | -73.04902 | 34784 ft | 497 kts | 70° |
| 2026-05-04 08:55 | 56.51387 | -72.93433 | 34781 ft | 497 kts | 71° |
| 2026-05-04 08:55 | 56.54046 | -72.81868 | 34785 ft | 498 kts | 71° |
| 2026-05-04 09:01 | 56.81392 | -71.59112 | 34815 ft | 500 kts | 72° |
| 2026-05-04 09:01 | 56.83940 | -71.47295 | 34796 ft | 500 kts | 72° |
| 2026-05-04 09:02 | 56.86476 | -71.35470 | 34808 ft | 500 kts | 73° |
| 2026-05-04 09:02 | 56.89000 | -71.23630 | 34812 ft | 499 kts | 73° |
| 2026-05-04 09:03 | 56.91511 | -71.11782 | 34812 ft | 499 kts | 73° |
| 2026-05-04 09:03 | 56.93993 | -71.00005 | 34825 ft | 499 kts | 73° |
| 2026-05-04 09:04 | 56.96478 | -70.88143 | 34821 ft | 499 kts | 73° |
| 2026-05-04 09:04 | 56.98953 | -70.76260 | 34824 ft | 498 kts | 73° |
| 2026-05-04 09:05 | 57.01413 | -70.64379 | 34827 ft | 498 kts | 74° |
| 2026-05-04 09:05 | 57.03862 | -70.52477 | 34839 ft | 498 kts | 74° |
| 2026-05-04 09:06 | 57.06301 | -70.40555 | 34840 ft | 499 kts | 74° |
| 2026-05-04 09:08 | 57.15955 | -69.92662 | 34845 ft | 499 kts | 75° |
| 2026-05-04 09:08 | 57.18339 | -69.80653 | 34846 ft | 499 kts | 75° |
| 2026-05-04 09:09 | 57.20712 | -69.68629 | 34846 ft | 499 kts | 75° |
| 2026-05-04 09:09 | 57.23073 | -69.56590 | 34848 ft | 499 kts | 75° |
| 2026-05-04 09:10 | 57.25423 | -69.44532 | 34847 ft | 499 kts | 75° |
| 2026-05-04 09:10 | 57.27762 | -69.32459 | 34812 ft | 499 kts | 76° |
| 2026-05-04 09:11 | 57.30086 | -69.20389 | 34837 ft | 498 kts | 76° |
| 2026-05-04 09:11 | 57.32381 | -69.08386 | 34845 ft | 498 kts | 76° |
| 2026-05-04 09:12 | 57.34681 | -68.96286 | 34853 ft | 499 kts | 76° |
| 2026-05-04 09:14 | 57.43800 | -68.47552 | 34854 ft | 500 kts | 77° |
| 2026-05-04 09:14 | 57.46049 | -68.35338 | 34850 ft | 500 kts | 77° |
| 2026-05-04 09:15 | 57.48285 | -68.23114 | 34859 ft | 500 kts | 77° |
| 2026-05-04 09:15 | 57.50509 | -68.10875 | 34868 ft | 500 kts | 77° |
| 2026-05-04 09:17 | 57.60003 | -67.57713 | 34853 ft | 498 kts | 79° |
| 2026-05-04 09:18 | 57.62158 | -67.45424 | 34857 ft | 499 kts | 79° |
| 2026-05-04 09:18 | 57.64303 | -67.33114 | 34867 ft | 499 kts | 79° |
| 2026-05-04 09:19 | 57.66437 | -67.20781 | 34867 ft | 499 kts | 79° |
| 2026-05-04 09:19 | 57.68563 | -67.08420 | 34863 ft | 500 kts | 79° |
| 2026-05-04 09:20 | 57.71013 | -66.96192 | 34857 ft | 508 kts | 71° |
| 2026-05-04 09:20 | 57.74379 | -66.84487 | 34872 ft | 512 kts | 68° |
| 2026-05-04 09:21 | 57.77833 | -66.72809 | 34859 ft | 513 kts | 68° |
| 2026-05-04 09:21 | 57.81254 | -66.61057 | 34867 ft | 514 kts | 68° |
| 2026-05-04 09:22 | 57.84642 | -66.49230 | 34874 ft | 515 kts | 69° |
| 2026-05-04 09:22 | 57.88017 | -66.37350 | 34878 ft | 516 kts | 69° |
| 2026-05-04 09:23 | 57.91383 | -66.25442 | 34876 ft | 516 kts | 69° |
| 2026-05-04 09:23 | 57.94742 | -66.13506 | 34860 ft | 516 kts | 69° |
| 2026-05-04 09:25 | 58.08127 | -65.65324 | 34901 ft | 521 kts | 70° |
| 2026-05-04 09:26 | 58.11463 | -65.53157 | 34888 ft | 522 kts | 70° |
| 2026-05-04 09:26 | 58.14791 | -65.40953 | 34899 ft | 522 kts | 70° |
| 2026-05-04 09:27 | 58.18112 | -65.28712 | 34897 ft | 522 kts | 70° |
| 2026-05-04 09:27 | 58.21398 | -65.16536 | 34865 ft | 522 kts | 70° |
| 2026-05-04 09:28 | 58.24686 | -65.04287 | 34907 ft | 521 kts | 70° |
| 2026-05-04 09:28 | 58.27957 | -64.92023 | 34904 ft | 520 kts | 70° |
| 2026-05-04 09:29 | 58.31219 | -64.79730 | 34915 ft | 521 kts | 70° |
| 2026-05-04 09:29 | 58.34470 | -64.67415 | 34928 ft | 521 kts | 70° |
| 2026-05-04 09:30 | 58.37713 | -64.55061 | 34930 ft | 522 kts | 70° |
| 2026-05-04 09:30 | 58.40948 | -64.42670 | 34928 ft | 522 kts | 70° |
| 2026-05-04 09:31 | 58.44172 | -64.30257 | 34932 ft | 522 kts | 71° |
| 2026-05-04 09:31 | 58.47381 | -64.17826 | 34903 ft | 521 kts | 71° |
| 2026-05-04 09:32 | 58.50573 | -64.05396 | 34938 ft | 521 kts | 71° |
| 2026-05-04 09:34 | 58.63207 | -63.55495 | 34909 ft | 520 kts | 71° |
| 2026-05-04 09:34 | 58.66329 | -63.42984 | 34926 ft | 520 kts | 71° |
| 2026-05-04 09:35 | 58.69432 | -63.30476 | 35063 ft | 525 kts | 71° |
| 2026-05-04 09:35 | 58.70996 | -63.24146 | 35411 ft | 523 kts | 71° |
| 2026-05-04 09:35 | 58.72548 | -63.17856 | 35907 ft | 518 kts | 71° |
| 2026-05-04 09:37 | 58.83166 | -62.74290 | 36928 ft | 509 kts | 71° |
| 2026-05-04 09:37 | 58.84657 | -62.68105 | 36931 ft | 508 kts | 71° |
| 2026-05-04 09:38 | 58.87620 | -62.55747 | 36937 ft | 506 kts | 71° |
| 2026-05-04 09:38 | 58.90568 | -62.43381 | 36940 ft | 506 kts | 71° |
| 2026-05-04 09:39 | 58.93508 | -62.30978 | 36932 ft | 507 kts | 71° |
| 2026-05-04 09:39 | 58.96440 | -62.18545 | 36928 ft | 508 kts | 71° |
| 2026-05-04 09:40 | 58.99363 | -62.06072 | 36931 ft | 509 kts | 71° |
| 2026-05-04 09:40 | 59.02284 | -61.93539 | 36938 ft | 510 kts | 71° |
| 2026-05-04 09:42 | 59.13888 | -61.43011 | 36936 ft | 512 kts | 71° |
| 2026-05-04 09:43 | 59.16759 | -61.30323 | 36935 ft | 512 kts | 71° |
| 2026-05-04 09:43 | 59.19618 | -61.17616 | 36938 ft | 511 kts | 72° |
| 2026-05-04 09:44 | 59.22519 | -61.04949 | 36935 ft | 512 kts | 69° |
| 2026-05-04 09:46 | 59.35388 | -60.55200 | 36949 ft | 513 kts | 68° |
| 2026-05-04 09:46 | 59.38563 | -60.42678 | 36949 ft | 513 kts | 68° |
| 2026-05-04 09:47 | 59.41726 | -60.30135 | 36951 ft | 513 kts | 69° |
| 2026-05-04 09:49 | 59.54284 | -59.79669 | 36953 ft | 514 kts | 69° |
| 2026-05-04 09:51 | 59.65129 | -59.35130 | 36958 ft | 515 kts | 69° |
| 2026-05-04 09:51 | 59.68206 | -59.22329 | 36961 ft | 516 kts | 69° |
| 2026-05-04 09:52 | 59.71274 | -59.09485 | 36959 ft | 516 kts | 69° |
| 2026-05-04 09:52 | 59.74327 | -58.96632 | 36949 ft | 515 kts | 69° |
| 2026-05-04 09:53 | 59.77366 | -58.83758 | 36971 ft | 516 kts | 69° |
| 2026-05-04 09:53 | 59.80397 | -58.70841 | 36968 ft | 516 kts | 69° |
| 2026-05-04 09:54 | 59.83421 | -58.57878 | 36967 ft | 517 kts | 69° |
| 2026-05-04 09:54 | 59.86413 | -58.44972 | 36962 ft | 518 kts | 69° |
| 2026-05-04 09:55 | 59.89436 | -58.31855 | 36966 ft | 518 kts | 69° |
| 2026-05-04 09:55 | 59.92408 | -58.18879 | 36962 ft | 519 kts | 69° |
| 2026-05-04 09:56 | 59.95393 | -58.05780 | 36973 ft | 519 kts | 69° |
| 2026-05-04 09:56 | 59.98049 | -57.92421 | 36945 ft | 516 kts | 75° |
| 2026-05-04 09:57 | 60.00237 | -57.78785 | 36970 ft | 515 kts | 76° |
| 2026-05-04 09:57 | 60.02383 | -57.65114 | 36975 ft | 516 kts | 76° |
| 2026-05-04 09:58 | 60.04551 | -57.51429 | 36968 ft | 517 kts | 76° |
| 2026-05-04 09:58 | 60.06730 | -57.37716 | 36992 ft | 518 kts | 76° |
| 2026-05-04 10:00 | 60.15355 | -56.82418 | 36975 ft | 520 kts | 76° |
| 2026-05-04 10:04 | 60.29576 | -55.87051 | 36962 ft | 521 kts | 76° |
| 2026-05-04 10:04 | 60.31599 | -55.73028 | 36986 ft | 520 kts | 77° |
| 2026-05-04 10:05 | 60.33591 | -55.59102 | 36991 ft | 520 kts | 77° |
| 2026-05-04 10:05 | 60.35582 | -55.45068 | 36995 ft | 520 kts | 77° |
| 2026-05-04 10:06 | 60.37556 | -55.31024 | 36995 ft | 519 kts | 77° |
| 2026-05-04 10:06 | 60.39515 | -55.16968 | 36991 ft | 519 kts | 76° |
| 2026-05-04 10:08 | 60.46257 | -54.67624 | 36995 ft | 520 kts | 77° |
| 2026-05-04 10:08 | 60.48150 | -54.53484 | 37009 ft | 520 kts | 77° |
| 2026-05-04 10:09 | 60.50029 | -54.39325 | 37004 ft | 520 kts | 77° |
| 2026-05-04 10:09 | 60.51895 | -54.25130 | 37007 ft | 520 kts | 76° |
| 2026-05-04 10:10 | 60.53746 | -54.10924 | 37015 ft | 521 kts | 77° |
| 2026-05-04 10:10 | 60.55584 | -53.96678 | 37015 ft | 521 kts | 77° |
| 2026-05-04 10:11 | 60.57408 | -53.82414 | 37019 ft | 521 kts | 77° |
| 2026-05-04 10:11 | 60.59216 | -53.68135 | 37000 ft | 521 kts | 77° |
| 2026-05-04 10:12 | 60.61008 | -53.53844 | 37024 ft | 521 kts | 76° |
| 2026-05-04 10:12 | 60.62787 | -53.39519 | 37033 ft | 522 kts | 76° |
| 2026-05-04 10:13 | 60.64553 | -53.25164 | 37025 ft | 523 kts | 76° |
| 2026-05-04 10:13 | 60.66306 | -53.10778 | 37035 ft | 523 kts | 77° |
| 2026-05-04 10:14 | 60.68033 | -52.96460 | 37037 ft | 523 kts | 77° |
| 2026-05-04 10:16 | 60.74829 | -52.38668 | 37043 ft | 522 kts | 77° |
| 2026-05-04 10:16 | 60.76484 | -52.24228 | 37048 ft | 521 kts | 77° |
| 2026-05-04 10:17 | 60.78122 | -52.09783 | 37051 ft | 521 kts | 77° |
| 2026-05-04 10:19 | 60.84496 | -51.52077 | 37051 ft | 516 kts | 77° |
| 2026-05-04 10:19 | 60.86041 | -51.37708 | 37059 ft | 515 kts | 77° |
| 2026-05-04 10:20 | 60.87569 | -51.23335 | 37074 ft | 515 kts | 77° |
| 2026-05-04 10:20 | 60.89081 | -51.08965 | 37100 ft | 515 kts | 77° |
| 2026-05-04 10:21 | 60.90579 | -50.94560 | 37084 ft | 516 kts | 77° |
| 2026-05-04 10:21 | 60.92062 | -50.80143 | 37083 ft | 516 kts | 77° |
| 2026-05-04 10:22 | 60.94259 | -50.58474 | 37091 ft | 516 kts | 78° |
| 2026-05-04 10:23 | 60.95704 | -50.44009 | 37082 ft | 516 kts | 77° |
| 2026-05-04 10:25 | 61.01260 | -49.86083 | 37114 ft | 517 kts | 79° |
| 2026-05-04 10:25 | 61.02501 | -49.71492 | 37116 ft | 517 kts | 79° |
| 2026-05-04 10:26 | 61.03727 | -49.56899 | 37121 ft | 517 kts | 79° |
| 2026-05-04 10:26 | 61.04952 | -49.42289 | 37126 ft | 517 kts | 79° |
| 2026-05-04 10:27 | 61.06166 | -49.27675 | 37123 ft | 517 kts | 79° |
| 2026-05-04 10:27 | 61.07366 | -49.13050 | 37126 ft | 516 kts | 79° |
| 2026-05-04 10:28 | 61.08549 | -48.98414 | 37130 ft | 516 kts | 80° |
| 2026-05-04 10:28 | 61.09714 | -48.83770 | 37139 ft | 516 kts | 80° |
| 2026-05-04 10:29 | 61.10864 | -48.69123 | 37139 ft | 516 kts | 80° |
| 2026-05-04 10:29 | 61.11997 | -48.54472 | 37133 ft | 516 kts | 80° |
| 2026-05-04 10:30 | 61.13115 | -48.39808 | 37154 ft | 516 kts | 81° |
| 2026-05-04 10:30 | 61.14216 | -48.25135 | 37128 ft | 515 kts | 81° |
| 2026-05-04 10:31 | 61.15298 | -48.10496 | 37150 ft | 515 kts | 81° |
| 2026-05-04 10:32 | 61.18951 | -47.59357 | 37168 ft | 514 kts | 81° |
| 2026-05-04 10:33 | 61.19961 | -47.44681 | 37171 ft | 514 kts | 81° |
| 2026-05-04 10:33 | 61.20956 | -47.29984 | 37170 ft | 515 kts | 81° |
| 2026-05-04 10:34 | 61.21936 | -47.15282 | 37161 ft | 514 kts | 81° |
| 2026-05-04 10:34 | 61.22898 | -47.00588 | 37175 ft | 513 kts | 82° |
| 2026-05-04 10:35 | 61.23843 | -46.85906 | 37174 ft | 513 kts | 82° |
| 2026-05-04 10:35 | 61.24773 | -46.71216 | 37185 ft | 513 kts | 82° |
| 2026-05-04 10:36 | 61.25686 | -46.56532 | 37175 ft | 512 kts | 82° |
| 2026-05-04 10:36 | 61.26580 | -46.41875 | 37167 ft | 511 kts | 82° |
| 2026-05-04 10:37 | 61.27456 | -46.27248 | 37170 ft | 509 kts | 83° |
| 2026-05-04 10:37 | 61.28315 | -46.12652 | 37173 ft | 509 kts | 83° |
| 2026-05-04 10:39 | 61.31194 | -45.61546 | 37170 ft | 508 kts | 83° |
| 2026-05-04 10:40 | 61.31981 | -45.46923 | 37164 ft | 508 kts | 83° |
| 2026-05-04 10:40 | 61.32753 | -45.32295 | 37166 ft | 508 kts | 84° |
| 2026-05-04 10:41 | 61.33509 | -45.17655 | 37154 ft | 509 kts | 84° |
| 2026-05-04 10:41 | 61.34244 | -45.03100 | 37179 ft | 509 kts | 84° |
| 2026-05-04 10:42 | 61.34969 | -44.88445 | 37145 ft | 509 kts | 84° |
| 2026-05-04 10:42 | 61.35677 | -44.73793 | 37154 ft | 508 kts | 84° |
| 2026-05-04 10:43 | 61.36370 | -44.59141 | 37140 ft | 507 kts | 84° |
| 2026-05-04 10:45 | 61.38975 | -44.00623 | 37127 ft | 506 kts | 85° |
| 2026-05-04 10:45 | 61.39587 | -43.85993 | 37124 ft | 506 kts | 85° |
| 2026-05-04 10:46 | 61.40181 | -43.71389 | 37122 ft | 505 kts | 85° |
| 2026-05-04 10:46 | 61.40759 | -43.56805 | 37160 ft | 504 kts | 85° |
| 2026-05-04 10:47 | 61.41321 | -43.42219 | 37163 ft | 504 kts | 85° |
| 2026-05-04 10:47 | 61.41867 | -43.27641 | 37165 ft | 504 kts | 86° |
| 2026-05-04 10:49 | 61.43896 | -42.69240 | 37205 ft | 504 kts | 86° |
| 2026-05-04 10:50 | 61.44364 | -42.54646 | 37201 ft | 503 kts | 86° |
| 2026-05-04 10:52 | 61.46012 | -41.98648 | 37220 ft | 504 kts | 86° |
| 2026-05-04 10:52 | 61.46405 | -41.84004 | 37215 ft | 504 kts | 87° |
| 2026-05-04 10:54 | 61.47820 | -41.25376 | 37209 ft | 505 kts | 87° |
| 2026-05-04 10:56 | 61.48983 | -40.66689 | 37196 ft | 504 kts | 88° |
| 2026-05-04 10:57 | 61.49233 | -40.52106 | 37208 ft | 505 kts | 88° |
| 2026-05-04 10:57 | 61.49469 | -40.37428 | 37182 ft | 505 kts | 88° |
| 2026-05-04 10:58 | 61.49689 | -40.22747 | 37190 ft | 505 kts | 88° |
| 2026-05-04 10:58 | 61.49896 | -40.08060 | 37191 ft | 505 kts | 88° |
| 2026-05-04 10:59 | 61.49975 | -39.93374 | 37183 ft | 504 kts | 91° |
| 2026-05-04 10:59 | 61.49769 | -39.78693 | 37190 ft | 504 kts | 92° |
| 2026-05-04 11:00 | 61.49508 | -39.64019 | 37207 ft | 505 kts | 92° |
| 2026-05-04 11:02 | 61.48455 | -39.05193 | 37192 ft | 505 kts | 92° |
| 2026-05-04 11:05 | 61.45843 | -37.95326 | 37188 ft | 504 kts | 93° |
| 2026-05-04 11:06 | 61.45429 | -37.80708 | 37202 ft | 503 kts | 94° |
| 2026-05-04 11:06 | 61.44999 | -37.66088 | 37202 ft | 504 kts | 94° |
| 2026-05-04 11:10 | 61.41545 | -36.63798 | 37205 ft | 504 kts | 94° |
| 2026-05-04 11:12 | 61.39231 | -36.05529 | 37211 ft | 503 kts | 95° |
| 2026-05-04 11:12 | 61.38620 | -35.91107 | 37225 ft | 502 kts | 95° |
| 2026-05-04 11:13 | 61.37988 | -35.76591 | 37220 ft | 503 kts | 95° |
| 2026-05-04 11:13 | 61.37341 | -35.62085 | 37217 ft | 502 kts | 95° |
| 2026-05-04 11:14 | 61.36679 | -35.47575 | 37218 ft | 502 kts | 95° |
| 2026-05-04 11:16 | 61.33876 | -34.89643 | 37238 ft | 502 kts | 96° |
| 2026-05-04 11:16 | 61.33138 | -34.75183 | 37226 ft | 502 kts | 96° |
| 2026-05-04 11:17 | 61.32383 | -34.60717 | 37222 ft | 502 kts | 96° |
| 2026-05-04 11:19 | 61.29213 | -34.02963 | 37238 ft | 502 kts | 96° |
| 2026-05-04 11:19 | 61.28382 | -33.88543 | 37229 ft | 502 kts | 97° |
| 2026-05-04 11:20 | 61.27535 | -33.74130 | 37233 ft | 502 kts | 97° |
| 2026-05-04 11:20 | 61.26680 | -33.59828 | 37231 ft | 502 kts | 97° |
| 2026-05-04 11:22 | 61.23082 | -33.02287 | 37233 ft | 503 kts | 97° |
| 2026-05-04 11:23 | 61.22144 | -32.87910 | 37236 ft | 503 kts | 98° |
| 2026-05-04 11:25 | 61.18734 | -32.37571 | 37238 ft | 504 kts | 98° |
| 2026-05-04 11:25 | 61.17725 | -32.23209 | 37240 ft | 504 kts | 98° |
| 2026-05-04 11:27 | 61.12996 | -31.58661 | 37236 ft | 503 kts | 99° |
| 2026-05-04 11:28 | 61.11905 | -31.44368 | 37237 ft | 503 kts | 99° |
| 2026-05-04 11:28 | 61.10800 | -31.30094 | 37236 ft | 503 kts | 99° |
| 2026-05-04 11:29 | 61.09680 | -31.15829 | 37245 ft | 503 kts | 99° |
| 2026-05-04 11:29 | 61.08543 | -31.01551 | 37240 ft | 504 kts | 99° |
| 2026-05-04 11:33 | 61.00136 | -30.01669 | 37233 ft | 507 kts | 102° |
| 2026-05-04 11:33 | 60.98226 | -29.87718 | 37238 ft | 505 kts | 108° |
| 2026-05-04 11:34 | 60.96050 | -29.73961 | 37236 ft | 505 kts | 108° |
| 2026-05-04 11:34 | 60.93876 | -29.60226 | 37235 ft | 505 kts | 108° |
| 2026-05-04 11:35 | 60.91719 | -29.46496 | 37232 ft | 504 kts | 108° |
| 2026-05-04 11:35 | 60.89564 | -29.32793 | 37234 ft | 504 kts | 108° |
| 2026-05-04 11:36 | 60.87394 | -29.19104 | 37230 ft | 504 kts | 108° |
| 2026-05-04 11:36 | 60.85213 | -29.05457 | 37224 ft | 503 kts | 108° |
| 2026-05-04 11:37 | 60.83021 | -28.91851 | 37230 ft | 502 kts | 108° |
| 2026-05-04 11:37 | 60.80817 | -28.78284 | 37232 ft | 502 kts | 109° |
| 2026-05-04 11:38 | 60.78601 | -28.64739 | 37230 ft | 501 kts | 109° |
| 2026-05-04 11:38 | 60.76373 | -28.51224 | 37231 ft | 501 kts | 109° |
| 2026-05-04 11:39 | 60.74510 | -28.40001 | 37234 ft | 502 kts | 109° |
| 2026-05-04 11:41 | 60.66553 | -27.92827 | 37224 ft | 502 kts | 109° |
| 2026-05-04 11:41 | 60.64250 | -27.79393 | 37223 ft | 502 kts | 109° |
| 2026-05-04 11:42 | 60.61932 | -27.65974 | 37223 ft | 502 kts | 109° |
| 2026-05-04 11:42 | 60.59602 | -27.52581 | 37223 ft | 502 kts | 110° |
| 2026-05-04 11:43 | 60.57259 | -27.39214 | 37225 ft | 501 kts | 110° |
| 2026-05-04 11:43 | 60.54907 | -27.25884 | 37217 ft | 501 kts | 110° |
| 2026-05-04 11:44 | 60.52542 | -27.12574 | 37220 ft | 501 kts | 110° |
| 2026-05-04 11:44 | 60.50165 | -26.99293 | 37218 ft | 501 kts | 110° |
| 2026-05-04 11:45 | 60.47791 | -26.86126 | 37216 ft | 500 kts | 110° |
| 2026-05-04 11:45 | 60.45389 | -26.72887 | 37215 ft | 500 kts | 110° |
| 2026-05-04 11:46 | 60.42974 | -26.59677 | 37204 ft | 500 kts | 110° |
| 2026-05-04 11:46 | 60.40549 | -26.46497 | 37225 ft | 499 kts | 110° |
| 2026-05-04 11:47 | 60.38111 | -26.33338 | 37214 ft | 500 kts | 110° |
| 2026-05-04 11:47 | 60.35658 | -26.20190 | 37209 ft | 500 kts | 111° |
| 2026-05-04 11:48 | 60.33192 | -26.07055 | 37210 ft | 500 kts | 111° |
| 2026-05-04 11:48 | 60.30711 | -25.93937 | 37210 ft | 500 kts | 111° |
| 2026-05-04 11:49 | 60.28219 | -25.80841 | 37202 ft | 500 kts | 111° |
| 2026-05-04 11:49 | 60.25715 | -25.67777 | 37207 ft | 500 kts | 111° |
| 2026-05-04 11:50 | 60.23200 | -25.54740 | 37219 ft | 499 kts | 111° |
| 2026-05-04 11:50 | 60.20672 | -25.41722 | 37213 ft | 500 kts | 111° |
| 2026-05-04 11:51 | 60.18147 | -25.28801 | 37207 ft | 500 kts | 111° |
| 2026-05-04 11:51 | 60.15591 | -25.15809 | 37207 ft | 500 kts | 111° |
| 2026-05-04 11:52 | 60.13005 | -25.02748 | 37198 ft | 500 kts | 112° |
| 2026-05-04 11:52 | 60.10440 | -24.89883 | 37207 ft | 500 kts | 112° |
| 2026-05-04 11:53 | 60.07850 | -24.76968 | 37208 ft | 500 kts | 112° |
| 2026-05-04 11:53 | 60.05247 | -24.64074 | 37201 ft | 499 kts | 112° |
| 2026-05-04 11:55 | 59.94690 | -24.12611 | 37196 ft | 500 kts | 112° |
| 2026-05-04 11:56 | 59.92019 | -23.99793 | 37205 ft | 500 kts | 112° |
| 2026-05-04 11:56 | 59.89337 | -23.87003 | 37202 ft | 500 kts | 113° |
| 2026-05-04 11:57 | 59.86641 | -23.74227 | 37196 ft | 500 kts | 113° |
| 2026-05-04 11:57 | 59.83932 | -23.61467 | 37212 ft | 501 kts | 113° |
| 2026-05-04 11:58 | 59.81209 | -23.48720 | 37190 ft | 501 kts | 113° |
| 2026-05-04 11:58 | 59.78472 | -23.35984 | 37197 ft | 501 kts | 113° |
| 2026-05-04 11:59 | 59.75724 | -23.23277 | 37197 ft | 501 kts | 113° |
| 2026-05-04 11:59 | 59.72962 | -23.10584 | 37200 ft | 501 kts | 114° |
| 2026-05-04 12:00 | 59.70185 | -22.97901 | 37199 ft | 502 kts | 114° |
| 2026-05-04 12:00 | 59.67398 | -22.85243 | 37202 ft | 502 kts | 114° |
| 2026-05-04 12:01 | 59.64598 | -22.72608 | 37215 ft | 502 kts | 114° |
| 2026-05-04 12:02 | 59.54681 | -22.28447 | 37190 ft | 503 kts | 114° |
| 2026-05-04 12:03 | 59.51819 | -22.15874 | 37190 ft | 503 kts | 114° |
| 2026-05-04 12:03 | 59.48947 | -22.03329 | 37189 ft | 502 kts | 114° |
| 2026-05-04 12:04 | 59.46065 | -21.90814 | 37173 ft | 502 kts | 115° |
| 2026-05-04 12:04 | 59.43190 | -21.78403 | 37188 ft | 502 kts | 115° |
| 2026-05-04 12:05 | 59.40281 | -21.65917 | 37185 ft | 503 kts | 115° |
| 2026-05-04 12:05 | 59.37359 | -21.53448 | 37185 ft | 503 kts | 115° |
| 2026-05-04 12:06 | 59.34425 | -21.40998 | 37184 ft | 503 kts | 115° |
| 2026-05-04 12:06 | 59.31478 | -21.28569 | 37182 ft | 503 kts | 115° |
| 2026-05-04 12:07 | 59.28519 | -21.16156 | 37170 ft | 503 kts | 115° |
| 2026-05-04 12:07 | 59.25548 | -21.03767 | 37184 ft | 503 kts | 115° |
| 2026-05-04 12:08 | 59.22562 | -20.91384 | 37188 ft | 504 kts | 116° |
| 2026-05-04 12:08 | 59.19559 | -20.79001 | 37180 ft | 505 kts | 116° |
| 2026-05-04 12:09 | 59.16541 | -20.66627 | 37176 ft | 505 kts | 116° |
| 2026-05-04 12:09 | 59.13512 | -20.54277 | 37174 ft | 505 kts | 116° |
| 2026-05-04 12:10 | 59.10472 | -20.41950 | 37165 ft | 505 kts | 116° |
| 2026-05-04 12:10 | 59.07420 | -20.29645 | 37172 ft | 505 kts | 116° |
| 2026-05-04 12:11 | 59.04358 | -20.17369 | 37171 ft | 505 kts | 116° |
| 2026-05-04 12:11 | 59.01285 | -20.05105 | 37171 ft | 505 kts | 116° |
| 2026-05-04 12:12 | 58.98220 | -19.92851 | 37169 ft | 505 kts | 116° |
| 2026-05-04 12:12 | 58.95205 | -19.80552 | 37169 ft | 505 kts | 116° |
| 2026-05-04 12:14 | 58.83096 | -19.31768 | 37178 ft | 503 kts | 116° |
| 2026-05-04 12:15 | 58.80032 | -19.19620 | 37165 ft | 504 kts | 117° |
| 2026-05-04 12:15 | 58.76955 | -19.07488 | 37161 ft | 504 kts | 117° |
| 2026-05-04 12:16 | 58.73868 | -18.95378 | 37155 ft | 503 kts | 117° |
| 2026-05-04 12:16 | 58.70772 | -18.83301 | 37165 ft | 503 kts | 117° |
| 2026-05-04 12:17 | 58.67668 | -18.71259 | 37154 ft | 503 kts | 117° |
| 2026-05-04 12:17 | 58.64554 | -18.59240 | 37161 ft | 502 kts | 117° |
| 2026-05-04 12:18 | 58.61430 | -18.47251 | 37180 ft | 502 kts | 117° |
| 2026-05-04 12:18 | 58.58292 | -18.35270 | 37160 ft | 503 kts | 117° |
| 2026-05-04 12:19 | 58.55141 | -18.23304 | 37148 ft | 503 kts | 117° |
| 2026-05-04 12:19 | 58.51980 | -18.11364 | 37150 ft | 503 kts | 118° |
| 2026-05-04 12:20 | 58.48810 | -17.99451 | 37148 ft | 502 kts | 118° |
| 2026-05-04 12:20 | 58.45631 | -17.87569 | 37147 ft | 502 kts | 118° |
| 2026-05-04 12:21 | 58.42442 | -17.75713 | 37149 ft | 502 kts | 118° |
| 2026-05-04 12:21 | 58.39243 | -17.63881 | 37154 ft | 502 kts | 118° |
| 2026-05-04 12:22 | 58.36033 | -17.52070 | 37157 ft | 502 kts | 118° |
| 2026-05-04 12:22 | 58.32812 | -17.40279 | 37139 ft | 502 kts | 118° |
| 2026-05-04 12:23 | 58.29581 | -17.28513 | 37134 ft | 502 kts | 118° |
| 2026-05-04 12:23 | 58.26361 | -17.16850 | 37154 ft | 502 kts | 118° |
| 2026-05-04 12:24 | 58.23111 | -17.05136 | 37137 ft | 502 kts | 118° |
| 2026-05-04 12:24 | 58.19849 | -16.93439 | 37129 ft | 502 kts | 119° |
| 2026-05-04 12:25 | 58.16580 | -16.81776 | 37144 ft | 501 kts | 119° |
| 2026-05-04 12:25 | 58.13301 | -16.70136 | 37142 ft | 501 kts | 119° |
| 2026-05-04 12:26 | 58.10011 | -16.58520 | 37123 ft | 501 kts | 119° |
| 2026-05-04 12:26 | 58.06714 | -16.46933 | 37141 ft | 501 kts | 119° |
| 2026-05-04 12:27 | 58.03964 | -16.37314 | 37138 ft | 501 kts | 119° |
| 2026-05-04 12:27 | 58.00644 | -16.25754 | 37137 ft | 501 kts | 119° |
| 2026-05-04 12:28 | 57.97317 | -16.14229 | 37124 ft | 500 kts | 120° |
| 2026-05-04 12:28 | 57.93981 | -16.02733 | 37127 ft | 500 kts | 120° |
| 2026-05-04 12:29 | 57.90637 | -15.91260 | 37125 ft | 500 kts | 120° |
| 2026-05-04 12:29 | 57.87282 | -15.79810 | 37126 ft | 500 kts | 120° |
| 2026-05-04 12:30 | 57.83916 | -15.68380 | 37122 ft | 500 kts | 120° |
| 2026-05-04 12:30 | 57.80536 | -15.56956 | 37123 ft | 500 kts | 120° |
| 2026-05-04 12:31 | 57.77148 | -15.45563 | 37123 ft | 501 kts | 120° |
| 2026-05-04 12:31 | 57.73747 | -15.34178 | 37122 ft | 501 kts | 120° |
| 2026-05-04 12:32 | 57.68621 | -15.17127 | 37112 ft | 502 kts | 120° |
| 2026-05-04 12:33 | 57.65187 | -15.05774 | 37114 ft | 502 kts | 121° |
| 2026-05-04 12:33 | 57.61736 | -14.94421 | 37117 ft | 503 kts | 121° |
| 2026-05-04 12:34 | 57.58274 | -14.83085 | 37113 ft | 503 kts | 121° |
| 2026-05-04 12:34 | 57.54807 | -14.71786 | 37109 ft | 502 kts | 121° |
| 2026-05-04 12:35 | 57.51333 | -14.60522 | 37104 ft | 501 kts | 121° |
| 2026-05-04 12:35 | 57.47854 | -14.49292 | 37115 ft | 501 kts | 121° |
| 2026-05-04 12:36 | 57.44364 | -14.38082 | 37114 ft | 501 kts | 121° |
| 2026-05-04 12:36 | 57.40865 | -14.26897 | 37097 ft | 501 kts | 121° |
| 2026-05-04 12:37 | 57.37379 | -14.15802 | 37100 ft | 501 kts | 121° |
| 2026-05-04 12:37 | 57.33863 | -14.04668 | 37104 ft | 501 kts | 121° |
| 2026-05-04 12:38 | 57.30337 | -13.93555 | 37094 ft | 501 kts | 122° |
| 2026-05-04 12:38 | 57.26804 | -13.82469 | 37101 ft | 500 kts | 122° |
| 2026-05-04 12:39 | 57.23262 | -13.71408 | 37101 ft | 501 kts | 122° |
| 2026-05-04 12:39 | 57.19708 | -13.60359 | 37096 ft | 501 kts | 122° |
| 2026-05-04 12:40 | 57.16146 | -13.49338 | 37088 ft | 500 kts | 122° |
| 2026-05-04 12:40 | 57.12579 | -13.38354 | 37090 ft | 500 kts | 122° |
| 2026-05-04 12:41 | 57.09003 | -13.27390 | 37094 ft | 500 kts | 122° |
| 2026-05-04 12:41 | 57.05421 | -13.16450 | 37094 ft | 499 kts | 122° |
| 2026-05-04 12:42 | 57.01733 | -13.05667 | 37106 ft | 497 kts | 130° |
| 2026-05-04 12:42 | 56.96821 | -12.96884 | 37082 ft | 492 kts | 146° |
| 2026-05-04 12:43 | 56.90956 | -12.90639 | 37104 ft | 487 kts | 155° |
| 2026-05-04 12:43 | 56.85001 | -12.84679 | 37093 ft | 489 kts | 151° |
| 2026-05-04 12:43 | 56.82255 | -12.80983 | 37085 ft | 494 kts | 140° |
| 2026-05-04 12:44 | 56.79896 | -12.76405 | 37105 ft | 497 kts | 130° |
| 2026-05-04 12:44 | 56.77955 | -12.71181 | 37097 ft | 499 kts | 119° |
| 2026-05-04 12:44 | 56.76397 | -12.65525 | 37104 ft | 499 kts | 117° |
| 2026-05-04 12:45 | 56.73388 | -12.54094 | 37083 ft | 501 kts | 117° |
| 2026-05-04 12:45 | 56.70343 | -12.42690 | 37099 ft | 501 kts | 117° |
| 2026-05-04 12:46 | 56.67234 | -12.31335 | 37084 ft | 501 kts | 118° |
| 2026-05-04 12:46 | 56.64119 | -12.20104 | 37090 ft | 501 kts | 118° |
| 2026-05-04 12:47 | 56.60972 | -12.08821 | 37082 ft | 500 kts | 118° |
| 2026-05-04 12:47 | 56.57821 | -11.97562 | 37095 ft | 500 kts | 118° |
| 2026-05-04 12:48 | 56.54667 | -11.86343 | 37089 ft | 499 kts | 118° |
| 2026-05-04 12:48 | 56.51507 | -11.75155 | 37093 ft | 498 kts | 118° |
| 2026-05-04 12:49 | 56.48347 | -11.64022 | 37089 ft | 497 kts | 118° |
| 2026-05-04 12:49 | 56.45181 | -11.52924 | 37091 ft | 496 kts | 119° |
| 2026-05-04 12:50 | 56.42008 | -11.41851 | 37096 ft | 496 kts | 119° |
| 2026-05-04 12:50 | 56.38825 | -11.30801 | 37093 ft | 496 kts | 119° |
| 2026-05-04 12:51 | 56.35632 | -11.19764 | 37090 ft | 496 kts | 119° |
| 2026-05-04 12:51 | 56.32429 | -11.08746 | 37092 ft | 496 kts | 119° |
| 2026-05-04 12:52 | 56.29221 | -10.97762 | 37092 ft | 495 kts | 119° |
| 2026-05-04 12:52 | 56.26009 | -10.86818 | 37097 ft | 494 kts | 119° |
| 2026-05-04 12:53 | 56.22793 | -10.75910 | 37089 ft | 494 kts | 119° |
| 2026-05-04 12:53 | 56.19570 | -10.65027 | 37094 ft | 493 kts | 119° |
| 2026-05-04 12:54 | 56.16341 | -10.54177 | 37095 ft | 492 kts | 119° |
| 2026-05-04 12:54 | 56.13105 | -10.43353 | 37079 ft | 492 kts | 119° |
| 2026-05-04 12:55 | 56.09868 | -10.32572 | 37092 ft | 491 kts | 119° |
| 2026-05-04 12:55 | 56.06628 | -10.21831 | 37097 ft | 490 kts | 119° |
| 2026-05-04 12:56 | 56.03381 | -10.11113 | 37094 ft | 490 kts | 119° |
| 2026-05-04 12:56 | 56.00151 | -10.00496 | 37092 ft | 489 kts | 120° |
| 2026-05-04 12:57 | 55.96771 | -9.89964 | 37092 ft | 489 kts | 122° |
| 2026-05-04 12:57 | 55.93262 | -9.79569 | 37093 ft | 489 kts | 122° |
| 2026-05-04 12:58 | 55.89750 | -9.69188 | 37092 ft | 488 kts | 122° |
| 2026-05-04 12:58 | 55.86258 | -9.58817 | 37101 ft | 488 kts | 121° |
| 2026-05-04 12:59 | 55.82770 | -9.48462 | 37088 ft | 488 kts | 121° |
| 2026-05-04 12:59 | 55.79276 | -9.38127 | 37090 ft | 487 kts | 122° |
| 2026-05-04 13:00 | 55.75775 | -9.27821 | 37089 ft | 487 kts | 122° |
| 2026-05-04 13:00 | 55.72266 | -9.17538 | 37098 ft | 487 kts | 122° |
| 2026-05-04 13:01 | 55.68747 | -9.07271 | 37099 ft | 487 kts | 122° |
| 2026-05-04 13:01 | 55.65219 | -8.97019 | 37102 ft | 487 kts | 122° |
| 2026-05-04 13:02 | 55.61680 | -8.86780 | 37096 ft | 488 kts | 122° |
| 2026-05-04 13:02 | 55.58131 | -8.76555 | 37095 ft | 488 kts | 122° |
| 2026-05-04 13:03 | 55.54572 | -8.66344 | 37099 ft | 488 kts | 122° |
| 2026-05-04 13:03 | 55.51002 | -8.56144 | 37100 ft | 488 kts | 122° |
| 2026-05-04 13:04 | 55.47423 | -8.45960 | 37097 ft | 488 kts | 122° |
| 2026-05-04 13:04 | 55.43869 | -8.35891 | 37095 ft | 487 kts | 122° |
| 2026-05-04 13:05 | 55.40291 | -8.25796 | 37098 ft | 485 kts | 122° |
| 2026-05-04 13:05 | 55.36714 | -8.15743 | 37097 ft | 484 kts | 122° |
| 2026-05-04 13:06 | 55.33135 | -8.05727 | 37098 ft | 484 kts | 122° |
| 2026-05-04 13:06 | 55.29552 | -7.95742 | 37099 ft | 483 kts | 122° |
| 2026-05-04 13:07 | 55.25964 | -7.85781 | 37089 ft | 483 kts | 122° |
| 2026-05-04 13:07 | 55.22372 | -7.75850 | 37092 ft | 482 kts | 122° |
| 2026-05-04 13:08 | 55.18773 | -7.65940 | 37097 ft | 482 kts | 122° |
| 2026-05-04 13:08 | 55.15169 | -7.56056 | 37094 ft | 482 kts | 122° |
| 2026-05-04 13:09 | 55.11559 | -7.46198 | 37099 ft | 481 kts | 122° |
| 2026-05-04 13:09 | 55.07945 | -7.36366 | 37104 ft | 481 kts | 122° |
| 2026-05-04 13:10 | 55.04322 | -7.26549 | 37100 ft | 481 kts | 122° |
| 2026-05-04 13:10 | 55.00697 | -7.16766 | 37107 ft | 480 kts | 122° |
| 2026-05-04 13:11 | 54.97068 | -7.07011 | 37106 ft | 480 kts | 122° |
| 2026-05-04 13:11 | 54.93437 | -6.97289 | 37098 ft | 478 kts | 122° |
| 2026-05-04 13:12 | 54.89809 | -6.87612 | 37100 ft | 477 kts | 122° |
| 2026-05-04 13:12 | 54.86202 | -6.78030 | 37092 ft | 477 kts | 122° |
| 2026-05-04 13:13 | 54.82565 | -6.68406 | 37093 ft | 477 kts | 122° |
| 2026-05-04 13:13 | 54.78930 | -6.58824 | 37097 ft | 475 kts | 122° |
| 2026-05-04 13:14 | 54.75292 | -6.49270 | 37101 ft | 475 kts | 122° |
| 2026-05-04 13:14 | 54.71647 | -6.39736 | 37107 ft | 475 kts | 123° |
| 2026-05-04 13:15 | 54.67993 | -6.30214 | 37104 ft | 475 kts | 123° |
| 2026-05-04 13:15 | 54.64948 | -6.22309 | 37103 ft | 476 kts | 123° |
| 2026-05-04 13:16 | 54.61274 | -6.12800 | 37104 ft | 476 kts | 123° |
| 2026-05-04 13:16 | 54.57594 | -6.03315 | 37112 ft | 476 kts | 123° |
| 2026-05-04 13:17 | 54.53911 | -5.93858 | 37102 ft | 475 kts | 123° |
| 2026-05-04 13:17 | 54.50224 | -5.84427 | 37099 ft | 474 kts | 123° |
| 2026-05-04 13:18 | 54.46542 | -5.75043 | 37099 ft | 473 kts | 123° |
| 2026-05-04 13:18 | 54.42857 | -5.65690 | 37096 ft | 472 kts | 123° |
| 2026-05-04 13:19 | 54.39168 | -5.56358 | 37091 ft | 472 kts | 123° |
| 2026-05-04 13:19 | 54.35475 | -5.47052 | 37101 ft | 472 kts | 123° |
| 2026-05-04 13:20 | 54.31777 | -5.37768 | 37091 ft | 472 kts | 123° |
| 2026-05-04 13:20 | 54.28073 | -5.28503 | 37098 ft | 471 kts | 123° |
| 2026-05-04 13:21 | 54.24365 | -5.19262 | 37089 ft | 471 kts | 123° |
| 2026-05-04 13:21 | 54.20648 | -5.10035 | 37093 ft | 471 kts | 123° |
| 2026-05-04 13:22 | 54.16925 | -5.00824 | 37091 ft | 471 kts | 123° |
| 2026-05-04 13:22 | 54.13195 | -4.91631 | 37099 ft | 471 kts | 123° |
| 2026-05-04 13:23 | 54.09459 | -4.82458 | 37079 ft | 471 kts | 123° |
| 2026-05-04 13:23 | 54.05746 | -4.73374 | 37079 ft | 470 kts | 123° |
| 2026-05-04 13:24 | 54.02006 | -4.64256 | 37075 ft | 470 kts | 123° |
| 2026-05-04 13:24 | 53.98263 | -4.55162 | 37075 ft | 469 kts | 123° |
| 2026-05-04 13:25 | 53.92646 | -4.41573 | 37074 ft | 469 kts | 123° |
| 2026-05-04 13:25 | 53.88907 | -4.32525 | 37079 ft | 468 kts | 123° |
| 2026-05-04 13:26 | 53.85228 | -4.23432 | 37074 ft | 467 kts | 123° |
| 2026-05-04 13:26 | 53.81538 | -4.14385 | 37080 ft | 467 kts | 123° |
| 2026-05-04 13:27 | 53.77819 | -4.05378 | 37083 ft | 467 kts | 123° |
| 2026-05-04 13:27 | 53.74098 | -3.96396 | 37077 ft | 467 kts | 123° |
| 2026-05-04 13:28 | 53.70371 | -3.87420 | 37072 ft | 467 kts | 123° |
| 2026-05-04 13:28 | 53.66642 | -3.78463 | 37083 ft | 466 kts | 123° |
| 2026-05-04 13:29 | 53.62907 | -3.69521 | 37067 ft | 466 kts | 123° |
| 2026-05-04 13:29 | 53.59168 | -3.60606 | 37071 ft | 466 kts | 124° |
| 2026-05-04 13:30 | 53.55429 | -3.51708 | 37072 ft | 465 kts | 124° |
| 2026-05-04 13:30 | 53.51729 | -3.42924 | 37069 ft | 465 kts | 124° |
| 2026-05-04 13:31 | 53.47992 | -3.34085 | 37067 ft | 465 kts | 124° |
| 2026-05-04 13:31 | 53.44191 | -3.25124 | 37064 ft | 465 kts | 124° |
| 2026-05-04 13:32 | 53.40457 | -3.16349 | 37071 ft | 465 kts | 124° |
| 2026-05-04 13:32 | 53.36650 | -3.07580 | 37076 ft | 466 kts | 126° |
| 2026-05-04 13:33 | 53.32759 | -2.98914 | 37077 ft | 466 kts | 126° |
| 2026-05-04 13:33 | 53.28877 | -2.90261 | 37076 ft | 466 kts | 126° |
| 2026-05-04 13:34 | 53.24990 | -2.81592 | 37074 ft | 466 kts | 126° |
| 2026-05-04 13:34 | 53.21102 | -2.72936 | 37070 ft | 466 kts | 126° |
| 2026-05-04 13:35 | 53.15260 | -2.60021 | 37063 ft | 465 kts | 126° |
| 2026-05-04 13:36 | 53.11465 | -2.51338 | 37062 ft | 463 kts | 123° |
| 2026-05-04 13:36 | 53.07946 | -2.42558 | 37055 ft | 447 kts | 123° |
| 2026-05-04 13:37 | 53.04502 | -2.34071 | 37052 ft | 441 kts | 123° |
| 2026-05-04 13:37 | 53.02613 | -2.30052 | 37050 ft | 443 kts | 135° |
| 2026-05-04 13:37 | 53.00155 | -2.26984 | 37072 ft | 443 kts | 147° |
| 2026-05-04 13:38 | 52.94852 | -2.21647 | 37082 ft | 448 kts | 148° |
| 2026-05-04 13:38 | 52.89543 | -2.16260 | 37078 ft | 452 kts | 147° |
| 2026-05-04 13:39 | 52.84193 | -2.10725 | 37070 ft | 454 kts | 147° |
| 2026-05-04 13:39 | 52.78843 | -2.05157 | 37064 ft | 454 kts | 147° |
| 2026-05-04 13:40 | 52.73506 | -1.99612 | 37067 ft | 452 kts | 147° |
| 2026-05-04 13:40 | 52.68212 | -1.94131 | 36945 ft | 445 kts | 147° |
| 2026-05-04 13:40 | 52.65598 | -1.91433 | 36527 ft | 441 kts | 147° |
| 2026-05-04 13:41 | 52.63011 | -1.88766 | 36081 ft | 437 kts | 147° |
| 2026-05-04 13:41 | 52.60443 | -1.86122 | 35638 ft | 434 kts | 147° |
| 2026-05-04 13:41 | 52.57896 | -1.83505 | 35214 ft | 430 kts | 147° |
| 2026-05-04 13:42 | 52.52870 | -1.78350 | 34417 ft | 422 kts | 147° |
| 2026-05-04 13:42 | 52.50391 | -1.75811 | 34030 ft | 418 kts | 147° |
| 2026-05-04 13:42 | 52.47935 | -1.73298 | 33578 ft | 414 kts | 147° |
| 2026-05-04 13:42 | 52.45539 | -1.70851 | 32868 ft | 399 kts | 147° |
| 2026-05-04 13:43 | 52.43200 | -1.68466 | 31832 ft | 393 kts | 148° |
| 2026-05-04 13:43 | 52.40889 | -1.66111 | 30756 ft | 390 kts | 148° |
| 2026-05-04 13:43 | 52.38600 | -1.63782 | 29647 ft | 386 kts | 148° |
| 2026-05-04 13:43 | 52.36335 | -1.61480 | 28541 ft | 380 kts | 148° |
| 2026-05-04 13:44 | 52.34112 | -1.59223 | 27493 ft | 373 kts | 149° |
| 2026-05-04 13:44 | 52.31925 | -1.57006 | 26488 ft | 367 kts | 149° |
| 2026-05-04 13:44 | 52.29773 | -1.54827 | 25508 ft | 361 kts | 149° |
| 2026-05-04 13:44 | 52.27652 | -1.52680 | 24573 ft | 356 kts | 149° |
| 2026-05-04 13:45 | 52.25564 | -1.50570 | 23720 ft | 349 kts | 149° |
| 2026-05-04 13:45 | 52.23516 | -1.48505 | 22736 ft | 343 kts | 149° |
| 2026-05-04 13:45 | 52.21503 | -1.46455 | 21687 ft | 340 kts | 147° |
| 2026-05-04 13:45 | 52.19640 | -1.44139 | 20837 ft | 335 kts | 141° |
| 2026-05-04 13:46 | 52.17890 | -1.41662 | 19880 ft | 332 kts | 140° |
| 2026-05-04 13:46 | 52.16177 | -1.39172 | 18954 ft | 329 kts | 140° |
| 2026-05-04 13:46 | 52.14479 | -1.36720 | 18672 ft | 325 kts | 140° |
| 2026-05-04 13:46 | 52.12776 | -1.34292 | 18325 ft | 325 kts | 140° |
| 2026-05-04 13:47 | 52.11065 | -1.31878 | 17966 ft | 326 kts | 141° |
| 2026-05-04 13:47 | 52.09346 | -1.29469 | 17621 ft | 326 kts | 141° |
| 2026-05-04 13:47 | 52.07623 | -1.27066 | 17274 ft | 326 kts | 141° |
| 2026-05-04 13:47 | 52.05904 | -1.24676 | 16952 ft | 325 kts | 141° |
| 2026-05-04 13:48 | 52.04185 | -1.22291 | 16628 ft | 325 kts | 141° |
| 2026-05-04 13:48 | 52.02471 | -1.19914 | 16294 ft | 323 kts | 141° |
| 2026-05-04 13:48 | 52.00761 | -1.17546 | 15965 ft | 322 kts | 141° |
| 2026-05-04 13:48 | 51.99061 | -1.15195 | 15628 ft | 320 kts | 141° |
| 2026-05-04 13:49 | 51.97376 | -1.12869 | 15314 ft | 316 kts | 141° |
| 2026-05-04 13:49 | 51.95732 | -1.10602 | 14986 ft | 314 kts | 141° |
| 2026-05-04 13:49 | 51.94070 | -1.08312 | 14575 ft | 314 kts | 141° |
| 2026-05-04 13:49 | 51.92407 | -1.06021 | 14184 ft | 314 kts | 141° |
| 2026-05-04 13:50 | 51.90745 | -1.03732 | 13756 ft | 314 kts | 142° |
| 2026-05-04 13:50 | 51.89075 | -1.01436 | 13273 ft | 315 kts | 142° |
| 2026-05-04 13:50 | 51.87402 | -0.99140 | 12850 ft | 315 kts | 141° |
| 2026-05-04 13:50 | 51.85748 | -0.96836 | 12418 ft | 311 kts | 138° |
| 2026-05-04 13:51 | 51.84499 | -0.94039 | 12009 ft | 306 kts | 118° |